<?xml version="1.0" encoding="UTF-8" standalone="no" ?>
<gpx xmlns="http://www.topografix.com/GPX/1/1" xmlns:xsi="http://www.w3.org/2001/XMLSchema-instance" xsi:schemaLocation="http://www.topografix.com/GPX/1/1 http://www.topografix.com/GPX/1/1/gpx.xsd" version="1.1" creator="VisuGPX - https://www.visugpx.com">
  <metadata>
    <name>Guip-Divy-Foret-25KM</name>
    <desc><![CDATA[départ guipavas vers ancienne route st divy rattrapper la foret et direction guip.]]></desc>
  </metadata>
  <trk>
    <name><![CDATA[2016-10-01 11:06]]></name>
    <desc><![CDATA[<p>Heure de départ: 10/01/2016 11:06</p><p>Heure d'arrivée: 10/01/2016 12:29</p><p>Distance: 24,8 km (01:22)</p><p>Temps déplacement: 01:20</p><p>Vitesse moyenne: 17,95 km/h</p><p>Vitesse moyenne mouv.: 18,6 km/h</p><p>Vitesse Max.: 38,94km/h</p><p>Altitude minimale: 18 m</p><p>Altitude maximale: 131 m</p><p>Vitesse de montée: 693,6 m/h</p><p>Vitesse de descente: -887,2 m/h</p><p>Gain d'altitude: 467 m</p><p>Perte d'altitude: -476 m</p><p>Temps de montée: 00:40</p><p>Temps de descente: 00:32</p><hr align="center" width="480" style="height: 2px; width: 517px"/>]]></desc>
    <trkseg>
      <trkpt lat="48.43918" lon="-4.3923">
        <ele>90.53</ele>
        <time>2016-10-01T09:06:52Z</time>
      </trkpt>
      <trkpt lat="48.43935" lon="-4.39249">
        <ele>91.58</ele>
        <time>2016-10-01T09:07:41Z</time>
      </trkpt>
      <trkpt lat="48.43951" lon="-4.39263">
        <ele>90.58</ele>
        <time>2016-10-01T09:07:45Z</time>
      </trkpt>
      <trkpt lat="48.4397" lon="-4.3927">
        <ele>91.57</ele>
        <time>2016-10-01T09:07:51Z</time>
      </trkpt>
      <trkpt lat="48.43988" lon="-4.39256">
        <ele>89.58</ele>
        <time>2016-10-01T09:07:55Z</time>
      </trkpt>
      <trkpt lat="48.44003" lon="-4.39236">
        <ele>89.57</ele>
        <time>2016-10-01T09:07:59Z</time>
      </trkpt>
      <trkpt lat="48.44018" lon="-4.39213">
        <ele>90.22</ele>
        <time>2016-10-01T09:08:03Z</time>
      </trkpt>
      <trkpt lat="48.44034" lon="-4.39192">
        <ele>88.62</ele>
        <time>2016-10-01T09:08:07Z</time>
      </trkpt>
      <trkpt lat="48.44048" lon="-4.39172">
        <ele>88.54</ele>
        <time>2016-10-01T09:08:10Z</time>
      </trkpt>
      <trkpt lat="48.44049" lon="-4.39144">
        <ele>87.62</ele>
        <time>2016-10-01T09:08:13Z</time>
      </trkpt>
      <trkpt lat="48.44046" lon="-4.39115">
        <ele>88.54</ele>
        <time>2016-10-01T09:08:16Z</time>
      </trkpt>
      <trkpt lat="48.44052" lon="-4.39082">
        <ele>88.42</ele>
        <time>2016-10-01T09:08:19Z</time>
      </trkpt>
      <trkpt lat="48.44071" lon="-4.39064">
        <ele>84.56</ele>
        <time>2016-10-01T09:08:23Z</time>
      </trkpt>
      <trkpt lat="48.44091" lon="-4.39057">
        <ele>86.77</ele>
        <time>2016-10-01T09:08:30Z</time>
      </trkpt>
      <trkpt lat="48.44111" lon="-4.39049">
        <ele>82.83</ele>
        <time>2016-10-01T09:08:36Z</time>
      </trkpt>
      <trkpt lat="48.44132" lon="-4.39048">
        <ele>81.61</ele>
        <time>2016-10-01T09:08:40Z</time>
      </trkpt>
      <trkpt lat="48.44152" lon="-4.39038">
        <ele>79.65</ele>
        <time>2016-10-01T09:08:44Z</time>
      </trkpt>
      <trkpt lat="48.4417" lon="-4.39032">
        <ele>76.79</ele>
        <time>2016-10-01T09:08:48Z</time>
      </trkpt>
      <trkpt lat="48.44193" lon="-4.39027">
        <ele>80.49</ele>
        <time>2016-10-01T09:08:53Z</time>
      </trkpt>
      <trkpt lat="48.44213" lon="-4.39026">
        <ele>79.42</ele>
        <time>2016-10-01T09:08:57Z</time>
      </trkpt>
      <trkpt lat="48.44229" lon="-4.39013">
        <ele>77.78</ele>
        <time>2016-10-01T09:09:06Z</time>
      </trkpt>
      <trkpt lat="48.44253" lon="-4.3901">
        <ele>73.78</ele>
        <time>2016-10-01T09:09:24Z</time>
      </trkpt>
      <trkpt lat="48.44274" lon="-4.39">
        <ele>69.97</ele>
        <time>2016-10-01T09:09:28Z</time>
      </trkpt>
      <trkpt lat="48.44293" lon="-4.38984">
        <ele>69.58</ele>
        <time>2016-10-01T09:09:31Z</time>
      </trkpt>
      <trkpt lat="48.44314" lon="-4.3898">
        <ele>68.78</ele>
        <time>2016-10-01T09:09:34Z</time>
      </trkpt>
      <trkpt lat="48.44334" lon="-4.38989">
        <ele>66.59</ele>
        <time>2016-10-01T09:09:38Z</time>
      </trkpt>
      <trkpt lat="48.44347" lon="-4.38969">
        <ele>65.46</ele>
        <time>2016-10-01T09:09:41Z</time>
      </trkpt>
      <trkpt lat="48.44362" lon="-4.38941">
        <ele>68.46</ele>
        <time>2016-10-01T09:09:44Z</time>
      </trkpt>
      <trkpt lat="48.44376" lon="-4.38909">
        <ele>68.74</ele>
        <time>2016-10-01T09:09:47Z</time>
      </trkpt>
      <trkpt lat="48.44392" lon="-4.3888">
        <ele>73.38</ele>
        <time>2016-10-01T09:09:50Z</time>
      </trkpt>
      <trkpt lat="48.44405" lon="-4.38851">
        <ele>74.57</ele>
        <time>2016-10-01T09:09:53Z</time>
      </trkpt>
      <trkpt lat="48.44418" lon="-4.38826">
        <ele>71.82</ele>
        <time>2016-10-01T09:09:56Z</time>
      </trkpt>
      <trkpt lat="48.44433" lon="-4.38801">
        <ele>74.33</ele>
        <time>2016-10-01T09:09:59Z</time>
      </trkpt>
      <trkpt lat="48.44445" lon="-4.38775">
        <ele>78.16</ele>
        <time>2016-10-01T09:10:02Z</time>
      </trkpt>
      <trkpt lat="48.44455" lon="-4.38752">
        <ele>76.78</ele>
        <time>2016-10-01T09:10:05Z</time>
      </trkpt>
      <trkpt lat="48.44465" lon="-4.38723">
        <ele>78.5</ele>
        <time>2016-10-01T09:10:09Z</time>
      </trkpt>
      <trkpt lat="48.44469" lon="-4.38695">
        <ele>77.77</ele>
        <time>2016-10-01T09:10:14Z</time>
      </trkpt>
      <trkpt lat="48.44462" lon="-4.38668">
        <ele>77.77</ele>
        <time>2016-10-01T09:10:20Z</time>
      </trkpt>
      <trkpt lat="48.44464" lon="-4.38639">
        <ele>81.29</ele>
        <time>2016-10-01T09:10:25Z</time>
      </trkpt>
      <trkpt lat="48.44464" lon="-4.38606">
        <ele>83.56</ele>
        <time>2016-10-01T09:10:30Z</time>
      </trkpt>
      <trkpt lat="48.44466" lon="-4.38575">
        <ele>81.58</ele>
        <time>2016-10-01T09:10:35Z</time>
      </trkpt>
      <trkpt lat="48.44468" lon="-4.38548">
        <ele>83.37</ele>
        <time>2016-10-01T09:10:39Z</time>
      </trkpt>
      <trkpt lat="48.44471" lon="-4.38519">
        <ele>83.61</ele>
        <time>2016-10-01T09:10:43Z</time>
      </trkpt>
      <trkpt lat="48.44474" lon="-4.38492">
        <ele>85.14</ele>
        <time>2016-10-01T09:10:47Z</time>
      </trkpt>
      <trkpt lat="48.44477" lon="-4.38464">
        <ele>87.57</ele>
        <time>2016-10-01T09:10:51Z</time>
      </trkpt>
      <trkpt lat="48.44482" lon="-4.3843">
        <ele>86.58</ele>
        <time>2016-10-01T09:10:56Z</time>
      </trkpt>
      <trkpt lat="48.44488" lon="-4.38401">
        <ele>85.58</ele>
        <time>2016-10-01T09:11:00Z</time>
      </trkpt>
      <trkpt lat="48.44494" lon="-4.38369">
        <ele>85.61</ele>
        <time>2016-10-01T09:11:04Z</time>
      </trkpt>
      <trkpt lat="48.44501" lon="-4.38337">
        <ele>88.46</ele>
        <time>2016-10-01T09:11:08Z</time>
      </trkpt>
      <trkpt lat="48.44509" lon="-4.38308">
        <ele>89.61</ele>
        <time>2016-10-01T09:11:12Z</time>
      </trkpt>
      <trkpt lat="48.44518" lon="-4.3828">
        <ele>88.78</ele>
        <time>2016-10-01T09:11:16Z</time>
      </trkpt>
      <trkpt lat="48.44528" lon="-4.38251">
        <ele>89.54</ele>
        <time>2016-10-01T09:11:20Z</time>
      </trkpt>
      <trkpt lat="48.44541" lon="-4.38223">
        <ele>88.58</ele>
        <time>2016-10-01T09:11:24Z</time>
      </trkpt>
      <trkpt lat="48.44555" lon="-4.38196">
        <ele>89.54</ele>
        <time>2016-10-01T09:11:28Z</time>
      </trkpt>
      <trkpt lat="48.44567" lon="-4.3817">
        <ele>89.38</ele>
        <time>2016-10-01T09:11:31Z</time>
      </trkpt>
      <trkpt lat="48.44579" lon="-4.38145">
        <ele>89.38</ele>
        <time>2016-10-01T09:11:34Z</time>
      </trkpt>
      <trkpt lat="48.44594" lon="-4.38116">
        <ele>89.77</ele>
        <time>2016-10-01T09:11:37Z</time>
      </trkpt>
      <trkpt lat="48.44606" lon="-4.38084">
        <ele>87.82</ele>
        <time>2016-10-01T09:11:40Z</time>
      </trkpt>
      <trkpt lat="48.44621" lon="-4.38052">
        <ele>87.42</ele>
        <time>2016-10-01T09:11:43Z</time>
      </trkpt>
      <trkpt lat="48.44633" lon="-4.38025">
        <ele>89.33</ele>
        <time>2016-10-01T09:11:46Z</time>
      </trkpt>
      <trkpt lat="48.44645" lon="-4.38003">
        <ele>88.58</ele>
        <time>2016-10-01T09:11:49Z</time>
      </trkpt>
      <trkpt lat="48.4466" lon="-4.37982">
        <ele>89.38</ele>
        <time>2016-10-01T09:11:53Z</time>
      </trkpt>
      <trkpt lat="48.44677" lon="-4.37966">
        <ele>90.53</ele>
        <time>2016-10-01T09:11:59Z</time>
      </trkpt>
      <trkpt lat="48.44696" lon="-4.3796">
        <ele>92.57</ele>
        <time>2016-10-01T09:12:08Z</time>
      </trkpt>
      <trkpt lat="48.44679" lon="-4.37971">
        <ele>90.78</ele>
        <time>2016-10-01T09:12:12Z</time>
      </trkpt>
      <trkpt lat="48.44659" lon="-4.37994">
        <ele>91.7</ele>
        <time>2016-10-01T09:12:15Z</time>
      </trkpt>
      <trkpt lat="48.44645" lon="-4.38012">
        <ele>92.54</ele>
        <time>2016-10-01T09:12:17Z</time>
      </trkpt>
      <trkpt lat="48.4463" lon="-4.3804">
        <ele>88.62</ele>
        <time>2016-10-01T09:12:21Z</time>
      </trkpt>
      <trkpt lat="48.44609" lon="-4.38056">
        <ele>90.37</ele>
        <time>2016-10-01T09:12:24Z</time>
      </trkpt>
      <trkpt lat="48.44602" lon="-4.38012">
        <ele>89.61</ele>
        <time>2016-10-01T09:12:27Z</time>
      </trkpt>
      <trkpt lat="48.44593" lon="-4.37974">
        <ele>88.78</ele>
        <time>2016-10-01T09:12:30Z</time>
      </trkpt>
      <trkpt lat="48.44587" lon="-4.37948">
        <ele>90.18</ele>
        <time>2016-10-01T09:12:33Z</time>
      </trkpt>
      <trkpt lat="48.44582" lon="-4.37921">
        <ele>92.4</ele>
        <time>2016-10-01T09:12:36Z</time>
      </trkpt>
      <trkpt lat="48.44577" lon="-4.37893">
        <ele>91.61</ele>
        <time>2016-10-01T09:12:39Z</time>
      </trkpt>
      <trkpt lat="48.44562" lon="-4.37874">
        <ele>91.38</ele>
        <time>2016-10-01T09:12:42Z</time>
      </trkpt>
      <trkpt lat="48.4455" lon="-4.37849">
        <ele>88.79</ele>
        <time>2016-10-01T09:12:45Z</time>
      </trkpt>
      <trkpt lat="48.4454" lon="-4.37822">
        <ele>86.82</ele>
        <time>2016-10-01T09:12:49Z</time>
      </trkpt>
      <trkpt lat="48.44557" lon="-4.37802">
        <ele>84.99</ele>
        <time>2016-10-01T09:12:51Z</time>
      </trkpt>
      <trkpt lat="48.44578" lon="-4.378">
        <ele>87.34</ele>
        <time>2016-10-01T09:12:56Z</time>
      </trkpt>
      <trkpt lat="48.44598" lon="-4.37793">
        <ele>87.6</ele>
        <time>2016-10-01T09:13:01Z</time>
      </trkpt>
      <trkpt lat="48.44616" lon="-4.37783">
        <ele>90.52</ele>
        <time>2016-10-01T09:13:04Z</time>
      </trkpt>
      <trkpt lat="48.44637" lon="-4.37769">
        <ele>89.42</ele>
        <time>2016-10-01T09:13:08Z</time>
      </trkpt>
      <trkpt lat="48.44656" lon="-4.37759">
        <ele>88.78</ele>
        <time>2016-10-01T09:13:12Z</time>
      </trkpt>
      <trkpt lat="48.44677" lon="-4.37749">
        <ele>87.94</ele>
        <time>2016-10-01T09:13:16Z</time>
      </trkpt>
      <trkpt lat="48.44683" lon="-4.37721">
        <ele>89.5</ele>
        <time>2016-10-01T09:13:20Z</time>
      </trkpt>
      <trkpt lat="48.44675" lon="-4.37688">
        <ele>90.18</ele>
        <time>2016-10-01T09:13:24Z</time>
      </trkpt>
      <trkpt lat="48.4467" lon="-4.37654">
        <ele>93.17</ele>
        <time>2016-10-01T09:13:28Z</time>
      </trkpt>
      <trkpt lat="48.44664" lon="-4.3762">
        <ele>95.57</ele>
        <time>2016-10-01T09:13:32Z</time>
      </trkpt>
      <trkpt lat="48.44658" lon="-4.37591">
        <ele>94.58</ele>
        <time>2016-10-01T09:13:35Z</time>
      </trkpt>
      <trkpt lat="48.44657" lon="-4.37558">
        <ele>94.58</ele>
        <time>2016-10-01T09:13:38Z</time>
      </trkpt>
      <trkpt lat="48.44656" lon="-4.37526">
        <ele>96.4</ele>
        <time>2016-10-01T09:13:41Z</time>
      </trkpt>
      <trkpt lat="48.44653" lon="-4.37491">
        <ele>92.86</ele>
        <time>2016-10-01T09:13:44Z</time>
      </trkpt>
      <trkpt lat="48.44646" lon="-4.37454">
        <ele>88.87</ele>
        <time>2016-10-01T09:13:47Z</time>
      </trkpt>
      <trkpt lat="48.44639" lon="-4.37416">
        <ele>86.85</ele>
        <time>2016-10-01T09:13:50Z</time>
      </trkpt>
      <trkpt lat="48.44627" lon="-4.37382">
        <ele>84.82</ele>
        <time>2016-10-01T09:13:53Z</time>
      </trkpt>
      <trkpt lat="48.44613" lon="-4.37351">
        <ele>83.59</ele>
        <time>2016-10-01T09:13:56Z</time>
      </trkpt>
      <trkpt lat="48.44599" lon="-4.37322">
        <ele>84.54</ele>
        <time>2016-10-01T09:13:59Z</time>
      </trkpt>
      <trkpt lat="48.44582" lon="-4.37295">
        <ele>85.38</ele>
        <time>2016-10-01T09:14:02Z</time>
      </trkpt>
      <trkpt lat="48.44566" lon="-4.37265">
        <ele>84.77</ele>
        <time>2016-10-01T09:14:05Z</time>
      </trkpt>
      <trkpt lat="48.44555" lon="-4.37243">
        <ele>84.58</ele>
        <time>2016-10-01T09:14:07Z</time>
      </trkpt>
      <trkpt lat="48.44541" lon="-4.37212">
        <ele>82.59</ele>
        <time>2016-10-01T09:14:10Z</time>
      </trkpt>
      <trkpt lat="48.44525" lon="-4.37181">
        <ele>81.42</ele>
        <time>2016-10-01T09:14:13Z</time>
      </trkpt>
      <trkpt lat="48.4451" lon="-4.3715">
        <ele>81.77</ele>
        <time>2016-10-01T09:14:16Z</time>
      </trkpt>
      <trkpt lat="48.44494" lon="-4.37117">
        <ele>79.82</ele>
        <time>2016-10-01T09:14:19Z</time>
      </trkpt>
      <trkpt lat="48.44482" lon="-4.37095">
        <ele>80.55</ele>
        <time>2016-10-01T09:14:21Z</time>
      </trkpt>
      <trkpt lat="48.4447" lon="-4.37072">
        <ele>80.41</ele>
        <time>2016-10-01T09:14:23Z</time>
      </trkpt>
      <trkpt lat="48.44458" lon="-4.37051">
        <ele>82.33</ele>
        <time>2016-10-01T09:14:25Z</time>
      </trkpt>
      <trkpt lat="48.44447" lon="-4.37027">
        <ele>80.01</ele>
        <time>2016-10-01T09:14:27Z</time>
      </trkpt>
      <trkpt lat="48.44434" lon="-4.37002">
        <ele>80.55</ele>
        <time>2016-10-01T09:14:29Z</time>
      </trkpt>
      <trkpt lat="48.44421" lon="-4.36982">
        <ele>80.42</ele>
        <time>2016-10-01T09:14:31Z</time>
      </trkpt>
      <trkpt lat="48.44405" lon="-4.36958">
        <ele>80.38</ele>
        <time>2016-10-01T09:14:34Z</time>
      </trkpt>
      <trkpt lat="48.44391" lon="-4.36938">
        <ele>82.33</ele>
        <time>2016-10-01T09:14:37Z</time>
      </trkpt>
      <trkpt lat="48.44377" lon="-4.36919">
        <ele>82.57</ele>
        <time>2016-10-01T09:14:40Z</time>
      </trkpt>
      <trkpt lat="48.44367" lon="-4.36896">
        <ele>82.74</ele>
        <time>2016-10-01T09:14:43Z</time>
      </trkpt>
      <trkpt lat="48.44358" lon="-4.36871">
        <ele>83.38</ele>
        <time>2016-10-01T09:14:46Z</time>
      </trkpt>
      <trkpt lat="48.44348" lon="-4.36848">
        <ele>82.58</ele>
        <time>2016-10-01T09:14:49Z</time>
      </trkpt>
      <trkpt lat="48.44341" lon="-4.3682">
        <ele>79.82</ele>
        <time>2016-10-01T09:14:52Z</time>
      </trkpt>
      <trkpt lat="48.44333" lon="-4.36791">
        <ele>77.66</ele>
        <time>2016-10-01T09:14:55Z</time>
      </trkpt>
      <trkpt lat="48.44325" lon="-4.3676">
        <ele>77.54</ele>
        <time>2016-10-01T09:14:58Z</time>
      </trkpt>
      <trkpt lat="48.44317" lon="-4.36728">
        <ele>74.82</ele>
        <time>2016-10-01T09:15:01Z</time>
      </trkpt>
      <trkpt lat="48.44308" lon="-4.36692">
        <ele>73.62</ele>
        <time>2016-10-01T09:15:04Z</time>
      </trkpt>
      <trkpt lat="48.44298" lon="-4.36667">
        <ele>71.66</ele>
        <time>2016-10-01T09:15:06Z</time>
      </trkpt>
      <trkpt lat="48.44287" lon="-4.36643">
        <ele>71.58</ele>
        <time>2016-10-01T09:15:08Z</time>
      </trkpt>
      <trkpt lat="48.44273" lon="-4.36609">
        <ele>71.58</ele>
        <time>2016-10-01T09:15:11Z</time>
      </trkpt>
      <trkpt lat="48.44259" lon="-4.36591">
        <ele>71.58</ele>
        <time>2016-10-01T09:15:14Z</time>
      </trkpt>
      <trkpt lat="48.44239" lon="-4.36576">
        <ele>70.74</ele>
        <time>2016-10-01T09:15:17Z</time>
      </trkpt>
      <trkpt lat="48.44219" lon="-4.36568">
        <ele>71.86</ele>
        <time>2016-10-01T09:15:20Z</time>
      </trkpt>
      <trkpt lat="48.442" lon="-4.36561">
        <ele>71.58</ele>
        <time>2016-10-01T09:15:23Z</time>
      </trkpt>
      <trkpt lat="48.44178" lon="-4.36554">
        <ele>73.53</ele>
        <time>2016-10-01T09:15:27Z</time>
      </trkpt>
      <trkpt lat="48.44162" lon="-4.36537">
        <ele>74.57</ele>
        <time>2016-10-01T09:15:31Z</time>
      </trkpt>
      <trkpt lat="48.44156" lon="-4.36508">
        <ele>75.57</ele>
        <time>2016-10-01T09:15:35Z</time>
      </trkpt>
      <trkpt lat="48.44153" lon="-4.36475">
        <ele>76.58</ele>
        <time>2016-10-01T09:15:40Z</time>
      </trkpt>
      <trkpt lat="48.44153" lon="-4.36446">
        <ele>76.77</ele>
        <time>2016-10-01T09:15:44Z</time>
      </trkpt>
      <trkpt lat="48.44154" lon="-4.36419">
        <ele>76.5</ele>
        <time>2016-10-01T09:15:48Z</time>
      </trkpt>
      <trkpt lat="48.44148" lon="-4.36388">
        <ele>74.62</ele>
        <time>2016-10-01T09:15:53Z</time>
      </trkpt>
      <trkpt lat="48.44149" lon="-4.36358">
        <ele>76.53</ele>
        <time>2016-10-01T09:15:57Z</time>
      </trkpt>
      <trkpt lat="48.44152" lon="-4.3633">
        <ele>75.65</ele>
        <time>2016-10-01T09:16:00Z</time>
      </trkpt>
      <trkpt lat="48.44154" lon="-4.36303">
        <ele>76.41</ele>
        <time>2016-10-01T09:16:04Z</time>
      </trkpt>
      <trkpt lat="48.44156" lon="-4.36275">
        <ele>77.57</ele>
        <time>2016-10-01T09:16:08Z</time>
      </trkpt>
      <trkpt lat="48.44164" lon="-4.36249">
        <ele>77.58</ele>
        <time>2016-10-01T09:16:13Z</time>
      </trkpt>
      <trkpt lat="48.44172" lon="-4.36223">
        <ele>76.62</ele>
        <time>2016-10-01T09:16:17Z</time>
      </trkpt>
      <trkpt lat="48.44178" lon="-4.36194">
        <ele>78.77</ele>
        <time>2016-10-01T09:16:22Z</time>
      </trkpt>
      <trkpt lat="48.44188" lon="-4.36162">
        <ele>80.58</ele>
        <time>2016-10-01T09:16:27Z</time>
      </trkpt>
      <trkpt lat="48.44196" lon="-4.36135">
        <ele>83.14</ele>
        <time>2016-10-01T09:16:31Z</time>
      </trkpt>
      <trkpt lat="48.44201" lon="-4.36104">
        <ele>79.66</ele>
        <time>2016-10-01T09:16:36Z</time>
      </trkpt>
      <trkpt lat="48.44209" lon="-4.3608">
        <ele>80.57</ele>
        <time>2016-10-01T09:16:40Z</time>
      </trkpt>
      <trkpt lat="48.44216" lon="-4.36051">
        <ele>78.59</ele>
        <time>2016-10-01T09:16:44Z</time>
      </trkpt>
      <trkpt lat="48.44218" lon="-4.36022">
        <ele>77.01</ele>
        <time>2016-10-01T09:16:48Z</time>
      </trkpt>
      <trkpt lat="48.44236" lon="-4.3603">
        <ele>81.56</ele>
        <time>2016-10-01T09:16:54Z</time>
      </trkpt>
      <trkpt lat="48.44252" lon="-4.36049">
        <ele>82.57</ele>
        <time>2016-10-01T09:16:57Z</time>
      </trkpt>
      <trkpt lat="48.44273" lon="-4.36067">
        <ele>81.62</ele>
        <time>2016-10-01T09:17:01Z</time>
      </trkpt>
      <trkpt lat="48.44288" lon="-4.36085">
        <ele>82.38</ele>
        <time>2016-10-01T09:17:05Z</time>
      </trkpt>
      <trkpt lat="48.44307" lon="-4.36088">
        <ele>85.17</ele>
        <time>2016-10-01T09:17:09Z</time>
      </trkpt>
      <trkpt lat="48.44318" lon="-4.36062">
        <ele>87.73</ele>
        <time>2016-10-01T09:17:14Z</time>
      </trkpt>
      <trkpt lat="48.4434" lon="-4.3607">
        <ele>80.38</ele>
        <time>2016-10-01T09:17:20Z</time>
      </trkpt>
      <trkpt lat="48.4436" lon="-4.36082">
        <ele>79.58</ele>
        <time>2016-10-01T09:17:24Z</time>
      </trkpt>
      <trkpt lat="48.44381" lon="-4.36095">
        <ele>82.37</ele>
        <time>2016-10-01T09:17:29Z</time>
      </trkpt>
      <trkpt lat="48.444" lon="-4.3611">
        <ele>76.19</ele>
        <time>2016-10-01T09:17:34Z</time>
      </trkpt>
      <trkpt lat="48.44415" lon="-4.36126">
        <ele>73.82</ele>
        <time>2016-10-01T09:17:37Z</time>
      </trkpt>
      <trkpt lat="48.44432" lon="-4.36137">
        <ele>74.39</ele>
        <time>2016-10-01T09:17:39Z</time>
      </trkpt>
      <trkpt lat="48.44452" lon="-4.36158">
        <ele>74.57</ele>
        <time>2016-10-01T09:17:42Z</time>
      </trkpt>
      <trkpt lat="48.44471" lon="-4.36175">
        <ele>75.38</ele>
        <time>2016-10-01T09:17:45Z</time>
      </trkpt>
      <trkpt lat="48.44491" lon="-4.36195">
        <ele>78.52</ele>
        <time>2016-10-01T09:17:48Z</time>
      </trkpt>
      <trkpt lat="48.4451" lon="-4.3621">
        <ele>77.58</ele>
        <time>2016-10-01T09:17:51Z</time>
      </trkpt>
      <trkpt lat="48.4453" lon="-4.36206">
        <ele>71.97</ele>
        <time>2016-10-01T09:17:59Z</time>
      </trkpt>
      <trkpt lat="48.44551" lon="-4.362">
        <ele>67.6</ele>
        <time>2016-10-01T09:18:06Z</time>
      </trkpt>
      <trkpt lat="48.44572" lon="-4.36203">
        <ele>61.78</ele>
        <time>2016-10-01T09:18:12Z</time>
      </trkpt>
      <trkpt lat="48.4459" lon="-4.36213">
        <ele>61.77</ele>
        <time>2016-10-01T09:18:18Z</time>
      </trkpt>
      <trkpt lat="48.44608" lon="-4.36224">
        <ele>60.78</ele>
        <time>2016-10-01T09:18:23Z</time>
      </trkpt>
      <trkpt lat="48.44627" lon="-4.36227">
        <ele>60.38</ele>
        <time>2016-10-01T09:18:28Z</time>
      </trkpt>
      <trkpt lat="48.44644" lon="-4.36232">
        <ele>58.81</ele>
        <time>2016-10-01T09:18:34Z</time>
      </trkpt>
      <trkpt lat="48.44664" lon="-4.36242">
        <ele>60.53</ele>
        <time>2016-10-01T09:18:40Z</time>
      </trkpt>
      <trkpt lat="48.44682" lon="-4.3625">
        <ele>66.13</ele>
        <time>2016-10-01T09:18:46Z</time>
      </trkpt>
      <trkpt lat="48.447" lon="-4.36236">
        <ele>65.58</ele>
        <time>2016-10-01T09:18:54Z</time>
      </trkpt>
      <trkpt lat="48.44715" lon="-4.36214">
        <ele>65.38</ele>
        <time>2016-10-01T09:18:59Z</time>
      </trkpt>
      <trkpt lat="48.44729" lon="-4.36193">
        <ele>67.57</ele>
        <time>2016-10-01T09:19:06Z</time>
      </trkpt>
      <trkpt lat="48.44742" lon="-4.36172">
        <ele>71.3</ele>
        <time>2016-10-01T09:19:13Z</time>
      </trkpt>
      <trkpt lat="48.44756" lon="-4.36147">
        <ele>74.34</ele>
        <time>2016-10-01T09:19:21Z</time>
      </trkpt>
      <trkpt lat="48.44769" lon="-4.36125">
        <ele>80.38</ele>
        <time>2016-10-01T09:19:28Z</time>
      </trkpt>
      <trkpt lat="48.44779" lon="-4.36099">
        <ele>82.3</ele>
        <time>2016-10-01T09:19:34Z</time>
      </trkpt>
      <trkpt lat="48.44792" lon="-4.36074">
        <ele>82.39</ele>
        <time>2016-10-01T09:19:43Z</time>
      </trkpt>
      <trkpt lat="48.44812" lon="-4.36066">
        <ele>86.34</ele>
        <time>2016-10-01T09:19:54Z</time>
      </trkpt>
      <trkpt lat="48.44826" lon="-4.36089">
        <ele>88.41</ele>
        <time>2016-10-01T09:20:01Z</time>
      </trkpt>
      <trkpt lat="48.4484" lon="-4.36108">
        <ele>90.53</ele>
        <time>2016-10-01T09:20:07Z</time>
      </trkpt>
      <trkpt lat="48.44857" lon="-4.36128">
        <ele>91.61</ele>
        <time>2016-10-01T09:20:13Z</time>
      </trkpt>
      <trkpt lat="48.44873" lon="-4.36149">
        <ele>91.58</ele>
        <time>2016-10-01T09:20:19Z</time>
      </trkpt>
      <trkpt lat="48.4489" lon="-4.36162">
        <ele>92.61</ele>
        <time>2016-10-01T09:20:26Z</time>
      </trkpt>
      <trkpt lat="48.44908" lon="-4.36159">
        <ele>90.42</ele>
        <time>2016-10-01T09:20:32Z</time>
      </trkpt>
      <trkpt lat="48.44927" lon="-4.36159">
        <ele>93.53</ele>
        <time>2016-10-01T09:20:38Z</time>
      </trkpt>
      <trkpt lat="48.44943" lon="-4.36145">
        <ele>98.52</ele>
        <time>2016-10-01T09:20:44Z</time>
      </trkpt>
      <trkpt lat="48.44956" lon="-4.36125">
        <ele>101.53</ele>
        <time>2016-10-01T09:20:50Z</time>
      </trkpt>
      <trkpt lat="48.44975" lon="-4.3612">
        <ele>100.57</ele>
        <time>2016-10-01T09:21:08Z</time>
      </trkpt>
      <trkpt lat="48.44993" lon="-4.36115">
        <ele>98.58</ele>
        <time>2016-10-01T09:21:24Z</time>
      </trkpt>
      <trkpt lat="48.45011" lon="-4.36108">
        <ele>99.58</ele>
        <time>2016-10-01T09:21:37Z</time>
      </trkpt>
      <trkpt lat="48.45029" lon="-4.36102">
        <ele>104.34</ele>
        <time>2016-10-01T09:21:52Z</time>
      </trkpt>
      <trkpt lat="48.45047" lon="-4.36102">
        <ele>104.57</ele>
        <time>2016-10-01T09:22:00Z</time>
      </trkpt>
      <trkpt lat="48.45063" lon="-4.36082">
        <ele>106.58</ele>
        <time>2016-10-01T09:22:07Z</time>
      </trkpt>
      <trkpt lat="48.45069" lon="-4.36055">
        <ele>105.78</ele>
        <time>2016-10-01T09:22:15Z</time>
      </trkpt>
      <trkpt lat="48.45073" lon="-4.36027">
        <ele>104.46</ele>
        <time>2016-10-01T09:22:21Z</time>
      </trkpt>
      <trkpt lat="48.45083" lon="-4.36">
        <ele>108.29</ele>
        <time>2016-10-01T09:22:27Z</time>
      </trkpt>
      <trkpt lat="48.45098" lon="-4.35984">
        <ele>107.54</ele>
        <time>2016-10-01T09:22:32Z</time>
      </trkpt>
      <trkpt lat="48.45116" lon="-4.35979">
        <ele>109.37</ele>
        <time>2016-10-01T09:22:37Z</time>
      </trkpt>
      <trkpt lat="48.45134" lon="-4.3597">
        <ele>110.22</ele>
        <time>2016-10-01T09:22:42Z</time>
      </trkpt>
      <trkpt lat="48.45153" lon="-4.35962">
        <ele>111.54</ele>
        <time>2016-10-01T09:22:51Z</time>
      </trkpt>
      <trkpt lat="48.45171" lon="-4.35952">
        <ele>111.42</ele>
        <time>2016-10-01T09:22:57Z</time>
      </trkpt>
      <trkpt lat="48.45181" lon="-4.35929">
        <ele>112.57</ele>
        <time>2016-10-01T09:23:02Z</time>
      </trkpt>
      <trkpt lat="48.45191" lon="-4.35904">
        <ele>114.38</ele>
        <time>2016-10-01T09:23:07Z</time>
      </trkpt>
      <trkpt lat="48.452" lon="-4.35878">
        <ele>115.57</ele>
        <time>2016-10-01T09:23:12Z</time>
      </trkpt>
      <trkpt lat="48.45208" lon="-4.35847">
        <ele>116.53</ele>
        <time>2016-10-01T09:23:17Z</time>
      </trkpt>
      <trkpt lat="48.45216" lon="-4.35822">
        <ele>118.54</ele>
        <time>2016-10-01T09:23:21Z</time>
      </trkpt>
      <trkpt lat="48.45223" lon="-4.35792">
        <ele>119.57</ele>
        <time>2016-10-01T09:23:26Z</time>
      </trkpt>
      <trkpt lat="48.45228" lon="-4.35766">
        <ele>119.59</ele>
        <time>2016-10-01T09:23:30Z</time>
      </trkpt>
      <trkpt lat="48.45236" lon="-4.35739">
        <ele>122.57</ele>
        <time>2016-10-01T09:23:35Z</time>
      </trkpt>
      <trkpt lat="48.45243" lon="-4.35708">
        <ele>122.7</ele>
        <time>2016-10-01T09:23:40Z</time>
      </trkpt>
      <trkpt lat="48.45254" lon="-4.35677">
        <ele>120.82</ele>
        <time>2016-10-01T09:23:44Z</time>
      </trkpt>
      <trkpt lat="48.4526" lon="-4.35651">
        <ele>120.61</ele>
        <time>2016-10-01T09:23:47Z</time>
      </trkpt>
      <trkpt lat="48.45266" lon="-4.35624">
        <ele>119.78</ele>
        <time>2016-10-01T09:23:50Z</time>
      </trkpt>
      <trkpt lat="48.45277" lon="-4.356">
        <ele>119.58</ele>
        <time>2016-10-01T09:23:53Z</time>
      </trkpt>
      <trkpt lat="48.4529" lon="-4.35578">
        <ele>119.58</ele>
        <time>2016-10-01T09:23:56Z</time>
      </trkpt>
      <trkpt lat="48.45304" lon="-4.35558">
        <ele>118.78</ele>
        <time>2016-10-01T09:23:59Z</time>
      </trkpt>
      <trkpt lat="48.45318" lon="-4.35532">
        <ele>116.59</ele>
        <time>2016-10-01T09:24:03Z</time>
      </trkpt>
      <trkpt lat="48.45329" lon="-4.35509">
        <ele>116.58</ele>
        <time>2016-10-01T09:24:06Z</time>
      </trkpt>
      <trkpt lat="48.45339" lon="-4.35484">
        <ele>116.61</ele>
        <time>2016-10-01T09:24:09Z</time>
      </trkpt>
      <trkpt lat="48.45346" lon="-4.35458">
        <ele>113.82</ele>
        <time>2016-10-01T09:24:12Z</time>
      </trkpt>
      <trkpt lat="48.45354" lon="-4.35433">
        <ele>110.99</ele>
        <time>2016-10-01T09:24:15Z</time>
      </trkpt>
      <trkpt lat="48.45363" lon="-4.35409">
        <ele>110.58</ele>
        <time>2016-10-01T09:24:18Z</time>
      </trkpt>
      <trkpt lat="48.45371" lon="-4.35382">
        <ele>112.37</ele>
        <time>2016-10-01T09:24:21Z</time>
      </trkpt>
      <trkpt lat="48.45377" lon="-4.35355">
        <ele>114.37</ele>
        <time>2016-10-01T09:24:24Z</time>
      </trkpt>
      <trkpt lat="48.45381" lon="-4.35328">
        <ele>114.57</ele>
        <time>2016-10-01T09:24:27Z</time>
      </trkpt>
      <trkpt lat="48.45386" lon="-4.35301">
        <ele>114.58</ele>
        <time>2016-10-01T09:24:30Z</time>
      </trkpt>
      <trkpt lat="48.45383" lon="-4.35272">
        <ele>112.66</ele>
        <time>2016-10-01T09:24:33Z</time>
      </trkpt>
      <trkpt lat="48.45383" lon="-4.35242">
        <ele>113.57</ele>
        <time>2016-10-01T09:24:36Z</time>
      </trkpt>
      <trkpt lat="48.45383" lon="-4.3521">
        <ele>114.54</ele>
        <time>2016-10-01T09:24:39Z</time>
      </trkpt>
      <trkpt lat="48.45384" lon="-4.35176">
        <ele>114.74</ele>
        <time>2016-10-01T09:24:42Z</time>
      </trkpt>
      <trkpt lat="48.45389" lon="-4.35142">
        <ele>113.62</ele>
        <time>2016-10-01T09:24:45Z</time>
      </trkpt>
      <trkpt lat="48.45394" lon="-4.35112">
        <ele>114.57</ele>
        <time>2016-10-01T09:24:48Z</time>
      </trkpt>
      <trkpt lat="48.45402" lon="-4.35085">
        <ele>117.3</ele>
        <time>2016-10-01T09:24:51Z</time>
      </trkpt>
      <trkpt lat="48.45416" lon="-4.35064">
        <ele>118.76</ele>
        <time>2016-10-01T09:24:54Z</time>
      </trkpt>
      <trkpt lat="48.45428" lon="-4.35039">
        <ele>117.62</ele>
        <time>2016-10-01T09:24:57Z</time>
      </trkpt>
      <trkpt lat="48.45439" lon="-4.35015">
        <ele>119.66</ele>
        <time>2016-10-01T09:25:00Z</time>
      </trkpt>
      <trkpt lat="48.45446" lon="-4.34981">
        <ele>117.82</ele>
        <time>2016-10-01T09:25:04Z</time>
      </trkpt>
      <trkpt lat="48.4545" lon="-4.34954">
        <ele>116.59</ele>
        <time>2016-10-01T09:25:07Z</time>
      </trkpt>
      <trkpt lat="48.45471" lon="-4.34949">
        <ele>114.79</ele>
        <time>2016-10-01T09:25:13Z</time>
      </trkpt>
      <trkpt lat="48.45489" lon="-4.34957">
        <ele>113.61</ele>
        <time>2016-10-01T09:25:17Z</time>
      </trkpt>
      <trkpt lat="48.45507" lon="-4.34961">
        <ele>114.57</ele>
        <time>2016-10-01T09:25:21Z</time>
      </trkpt>
      <trkpt lat="48.45529" lon="-4.34963">
        <ele>116.4</ele>
        <time>2016-10-01T09:25:25Z</time>
      </trkpt>
      <trkpt lat="48.45548" lon="-4.3497">
        <ele>118.3</ele>
        <time>2016-10-01T09:25:29Z</time>
      </trkpt>
      <trkpt lat="48.4557" lon="-4.34981">
        <ele>117.58</ele>
        <time>2016-10-01T09:25:33Z</time>
      </trkpt>
      <trkpt lat="48.45592" lon="-4.34989">
        <ele>117.61</ele>
        <time>2016-10-01T09:25:37Z</time>
      </trkpt>
      <trkpt lat="48.45608" lon="-4.35002">
        <ele>118.38</ele>
        <time>2016-10-01T09:25:40Z</time>
      </trkpt>
      <trkpt lat="48.45626" lon="-4.35012">
        <ele>117.46</ele>
        <time>2016-10-01T09:25:44Z</time>
      </trkpt>
      <trkpt lat="48.45644" lon="-4.3502">
        <ele>118.38</ele>
        <time>2016-10-01T09:25:50Z</time>
      </trkpt>
      <trkpt lat="48.45662" lon="-4.35027">
        <ele>120.53</ele>
        <time>2016-10-01T09:25:56Z</time>
      </trkpt>
      <trkpt lat="48.45682" lon="-4.35032">
        <ele>119.38</ele>
        <time>2016-10-01T09:26:01Z</time>
      </trkpt>
      <trkpt lat="48.45705" lon="-4.35029">
        <ele>120.38</ele>
        <time>2016-10-01T09:26:06Z</time>
      </trkpt>
      <trkpt lat="48.45723" lon="-4.35028">
        <ele>118.61</ele>
        <time>2016-10-01T09:26:11Z</time>
      </trkpt>
      <trkpt lat="48.45743" lon="-4.35024">
        <ele>118.69</ele>
        <time>2016-10-01T09:26:17Z</time>
      </trkpt>
      <trkpt lat="48.45762" lon="-4.35013">
        <ele>108.98</ele>
        <time>2016-10-01T09:26:23Z</time>
      </trkpt>
      <trkpt lat="48.45783" lon="-4.35007">
        <ele>115.5</ele>
        <time>2016-10-01T09:26:27Z</time>
      </trkpt>
      <trkpt lat="48.45804" lon="-4.34991">
        <ele>118.57</ele>
        <time>2016-10-01T09:26:32Z</time>
      </trkpt>
      <trkpt lat="48.45821" lon="-4.3498">
        <ele>117.94</ele>
        <time>2016-10-01T09:26:35Z</time>
      </trkpt>
      <trkpt lat="48.4584" lon="-4.34974">
        <ele>118.41</ele>
        <time>2016-10-01T09:26:39Z</time>
      </trkpt>
      <trkpt lat="48.45859" lon="-4.34969">
        <ele>121.33</ele>
        <time>2016-10-01T09:26:42Z</time>
      </trkpt>
      <trkpt lat="48.45877" lon="-4.34956">
        <ele>121.61</ele>
        <time>2016-10-01T09:26:45Z</time>
      </trkpt>
      <trkpt lat="48.45894" lon="-4.34943">
        <ele>119.78</ele>
        <time>2016-10-01T09:26:48Z</time>
      </trkpt>
      <trkpt lat="48.45918" lon="-4.34948">
        <ele>120.61</ele>
        <time>2016-10-01T09:26:52Z</time>
      </trkpt>
      <trkpt lat="48.45936" lon="-4.34967">
        <ele>122.53</ele>
        <time>2016-10-01T09:26:56Z</time>
      </trkpt>
      <trkpt lat="48.45952" lon="-4.34982">
        <ele>121.39</ele>
        <time>2016-10-01T09:26:59Z</time>
      </trkpt>
      <trkpt lat="48.45964" lon="-4.35002">
        <ele>121.57</ele>
        <time>2016-10-01T09:27:02Z</time>
      </trkpt>
      <trkpt lat="48.45978" lon="-4.35024">
        <ele>122.38</ele>
        <time>2016-10-01T09:27:05Z</time>
      </trkpt>
      <trkpt lat="48.45997" lon="-4.35024">
        <ele>121.77</ele>
        <time>2016-10-01T09:27:08Z</time>
      </trkpt>
      <trkpt lat="48.46005" lon="-4.34993">
        <ele>121.54</ele>
        <time>2016-10-01T09:27:12Z</time>
      </trkpt>
      <trkpt lat="48.46017" lon="-4.34964">
        <ele>119.66</ele>
        <time>2016-10-01T09:27:16Z</time>
      </trkpt>
      <trkpt lat="48.46027" lon="-4.34939">
        <ele>120.54</ele>
        <time>2016-10-01T09:27:19Z</time>
      </trkpt>
      <trkpt lat="48.46036" lon="-4.34915">
        <ele>119.58</ele>
        <time>2016-10-01T09:27:22Z</time>
      </trkpt>
      <trkpt lat="48.46046" lon="-4.3489">
        <ele>118.74</ele>
        <time>2016-10-01T09:27:25Z</time>
      </trkpt>
      <trkpt lat="48.46057" lon="-4.34866">
        <ele>115.86</ele>
        <time>2016-10-01T09:27:28Z</time>
      </trkpt>
      <trkpt lat="48.46069" lon="-4.34839">
        <ele>115.61</ele>
        <time>2016-10-01T09:27:31Z</time>
      </trkpt>
      <trkpt lat="48.46081" lon="-4.34812">
        <ele>112.82</ele>
        <time>2016-10-01T09:27:34Z</time>
      </trkpt>
      <trkpt lat="48.4609" lon="-4.34787">
        <ele>112.58</ele>
        <time>2016-10-01T09:27:37Z</time>
      </trkpt>
      <trkpt lat="48.46101" lon="-4.34762">
        <ele>110.78</ele>
        <time>2016-10-01T09:27:40Z</time>
      </trkpt>
      <trkpt lat="48.46113" lon="-4.34736">
        <ele>109.59</ele>
        <time>2016-10-01T09:27:43Z</time>
      </trkpt>
      <trkpt lat="48.46126" lon="-4.34705">
        <ele>110.5</ele>
        <time>2016-10-01T09:27:46Z</time>
      </trkpt>
      <trkpt lat="48.46142" lon="-4.34674">
        <ele>110.58</ele>
        <time>2016-10-01T09:27:49Z</time>
      </trkpt>
      <trkpt lat="48.46154" lon="-4.34642">
        <ele>110.38</ele>
        <time>2016-10-01T09:27:52Z</time>
      </trkpt>
      <trkpt lat="48.46166" lon="-4.34611">
        <ele>109.58</ele>
        <time>2016-10-01T09:27:55Z</time>
      </trkpt>
      <trkpt lat="48.4618" lon="-4.3458">
        <ele>108.78</ele>
        <time>2016-10-01T09:27:58Z</time>
      </trkpt>
      <trkpt lat="48.4619" lon="-4.34549">
        <ele>108.45</ele>
        <time>2016-10-01T09:28:01Z</time>
      </trkpt>
      <trkpt lat="48.46202" lon="-4.34514">
        <ele>106.78</ele>
        <time>2016-10-01T09:28:04Z</time>
      </trkpt>
      <trkpt lat="48.46212" lon="-4.34491">
        <ele>106.58</ele>
        <time>2016-10-01T09:28:07Z</time>
      </trkpt>
      <trkpt lat="48.4621" lon="-4.34461">
        <ele>106.57</ele>
        <time>2016-10-01T09:28:15Z</time>
      </trkpt>
      <trkpt lat="48.46207" lon="-4.34431">
        <ele>105.59</ele>
        <time>2016-10-01T09:28:20Z</time>
      </trkpt>
      <trkpt lat="48.46216" lon="-4.34402">
        <ele>104.74</ele>
        <time>2016-10-01T09:28:25Z</time>
      </trkpt>
      <trkpt lat="48.46228" lon="-4.34378">
        <ele>104.58</ele>
        <time>2016-10-01T09:28:30Z</time>
      </trkpt>
      <trkpt lat="48.4622" lon="-4.34351">
        <ele>101.82</ele>
        <time>2016-10-01T09:28:35Z</time>
      </trkpt>
      <trkpt lat="48.46201" lon="-4.34346">
        <ele>97.99</ele>
        <time>2016-10-01T09:28:40Z</time>
      </trkpt>
      <trkpt lat="48.46182" lon="-4.3435">
        <ele>99.34</ele>
        <time>2016-10-01T09:28:46Z</time>
      </trkpt>
      <trkpt lat="48.46191" lon="-4.34375">
        <ele>99.77</ele>
        <time>2016-10-01T09:28:53Z</time>
      </trkpt>
      <trkpt lat="48.46199" lon="-4.34403">
        <ele>96.55</ele>
        <time>2016-10-01T09:28:59Z</time>
      </trkpt>
      <trkpt lat="48.46193" lon="-4.34431">
        <ele>99.36</ele>
        <time>2016-10-01T09:29:04Z</time>
      </trkpt>
      <trkpt lat="48.46172" lon="-4.34434">
        <ele>97.39</ele>
        <time>2016-10-01T09:29:10Z</time>
      </trkpt>
      <trkpt lat="48.46155" lon="-4.34423">
        <ele>99.18</ele>
        <time>2016-10-01T09:29:15Z</time>
      </trkpt>
      <trkpt lat="48.46158" lon="-4.34394">
        <ele>103.53</ele>
        <time>2016-10-01T09:29:22Z</time>
      </trkpt>
      <trkpt lat="48.46144" lon="-4.34372">
        <ele>100.82</ele>
        <time>2016-10-01T09:29:28Z</time>
      </trkpt>
      <trkpt lat="48.46127" lon="-4.34348">
        <ele>102.21</ele>
        <time>2016-10-01T09:29:32Z</time>
      </trkpt>
      <trkpt lat="48.46111" lon="-4.34328">
        <ele>101.58</ele>
        <time>2016-10-01T09:29:36Z</time>
      </trkpt>
      <trkpt lat="48.46093" lon="-4.3432">
        <ele>101.58</ele>
        <time>2016-10-01T09:29:40Z</time>
      </trkpt>
      <trkpt lat="48.46074" lon="-4.34315">
        <ele>104.37</ele>
        <time>2016-10-01T09:29:46Z</time>
      </trkpt>
      <trkpt lat="48.46056" lon="-4.3431">
        <ele>106.21</ele>
        <time>2016-10-01T09:29:51Z</time>
      </trkpt>
      <trkpt lat="48.46038" lon="-4.34306">
        <ele>103.91</ele>
        <time>2016-10-01T09:29:57Z</time>
      </trkpt>
      <trkpt lat="48.46017" lon="-4.3429">
        <ele>104.18</ele>
        <time>2016-10-01T09:30:02Z</time>
      </trkpt>
      <trkpt lat="48.46009" lon="-4.34262">
        <ele>105.38</ele>
        <time>2016-10-01T09:30:07Z</time>
      </trkpt>
      <trkpt lat="48.46007" lon="-4.34231">
        <ele>111.33</ele>
        <time>2016-10-01T09:30:12Z</time>
      </trkpt>
      <trkpt lat="48.46007" lon="-4.342">
        <ele>114.41</ele>
        <time>2016-10-01T09:30:17Z</time>
      </trkpt>
      <trkpt lat="48.46007" lon="-4.34172">
        <ele>115.58</ele>
        <time>2016-10-01T09:30:22Z</time>
      </trkpt>
      <trkpt lat="48.45992" lon="-4.34154">
        <ele>117.53</ele>
        <time>2016-10-01T09:30:28Z</time>
      </trkpt>
      <trkpt lat="48.45974" lon="-4.34148">
        <ele>116.62</ele>
        <time>2016-10-01T09:30:33Z</time>
      </trkpt>
      <trkpt lat="48.45954" lon="-4.34143">
        <ele>117.38</ele>
        <time>2016-10-01T09:30:38Z</time>
      </trkpt>
      <trkpt lat="48.45933" lon="-4.34132">
        <ele>116.54</ele>
        <time>2016-10-01T09:30:43Z</time>
      </trkpt>
      <trkpt lat="48.45913" lon="-4.34131">
        <ele>115.78</ele>
        <time>2016-10-01T09:30:47Z</time>
      </trkpt>
      <trkpt lat="48.45893" lon="-4.34118">
        <ele>115.78</ele>
        <time>2016-10-01T09:30:52Z</time>
      </trkpt>
      <trkpt lat="48.45873" lon="-4.34112">
        <ele>114.58</ele>
        <time>2016-10-01T09:30:57Z</time>
      </trkpt>
      <trkpt lat="48.45853" lon="-4.34101">
        <ele>114.42</ele>
        <time>2016-10-01T09:31:03Z</time>
      </trkpt>
      <trkpt lat="48.45835" lon="-4.34094">
        <ele>116.34</ele>
        <time>2016-10-01T09:31:08Z</time>
      </trkpt>
      <trkpt lat="48.45814" lon="-4.34092">
        <ele>117.34</ele>
        <time>2016-10-01T09:31:13Z</time>
      </trkpt>
      <trkpt lat="48.45795" lon="-4.34084">
        <ele>116.57</ele>
        <time>2016-10-01T09:31:17Z</time>
      </trkpt>
      <trkpt lat="48.45778" lon="-4.34078">
        <ele>117.54</ele>
        <time>2016-10-01T09:31:22Z</time>
      </trkpt>
      <trkpt lat="48.4576" lon="-4.34072">
        <ele>115.78</ele>
        <time>2016-10-01T09:31:28Z</time>
      </trkpt>
      <trkpt lat="48.45746" lon="-4.34047">
        <ele>121.2</ele>
        <time>2016-10-01T09:31:36Z</time>
      </trkpt>
      <trkpt lat="48.45749" lon="-4.34019">
        <ele>122.55</ele>
        <time>2016-10-01T09:31:40Z</time>
      </trkpt>
      <trkpt lat="48.45753" lon="-4.33985">
        <ele>124.69</ele>
        <time>2016-10-01T09:31:44Z</time>
      </trkpt>
      <trkpt lat="48.45761" lon="-4.33951">
        <ele>122.81</ele>
        <time>2016-10-01T09:31:48Z</time>
      </trkpt>
      <trkpt lat="48.45761" lon="-4.33923">
        <ele>123.38</ele>
        <time>2016-10-01T09:31:51Z</time>
      </trkpt>
      <trkpt lat="48.45766" lon="-4.33892">
        <ele>124.38</ele>
        <time>2016-10-01T09:31:55Z</time>
      </trkpt>
      <trkpt lat="48.45768" lon="-4.33857">
        <ele>125.34</ele>
        <time>2016-10-01T09:31:59Z</time>
      </trkpt>
      <trkpt lat="48.45771" lon="-4.33824">
        <ele>126.57</ele>
        <time>2016-10-01T09:32:03Z</time>
      </trkpt>
      <trkpt lat="48.45773" lon="-4.33796">
        <ele>126.58</ele>
        <time>2016-10-01T09:32:06Z</time>
      </trkpt>
      <trkpt lat="48.45774" lon="-4.33767">
        <ele>126.58</ele>
        <time>2016-10-01T09:32:09Z</time>
      </trkpt>
      <trkpt lat="48.45778" lon="-4.3373">
        <ele>128.37</ele>
        <time>2016-10-01T09:32:13Z</time>
      </trkpt>
      <trkpt lat="48.45779" lon="-4.33695">
        <ele>129.5</ele>
        <time>2016-10-01T09:32:17Z</time>
      </trkpt>
      <trkpt lat="48.45782" lon="-4.33668">
        <ele>130.38</ele>
        <time>2016-10-01T09:32:20Z</time>
      </trkpt>
      <trkpt lat="48.45784" lon="-4.33639">
        <ele>131.37</ele>
        <time>2016-10-01T09:32:23Z</time>
      </trkpt>
      <trkpt lat="48.45789" lon="-4.33606">
        <ele>130.78</ele>
        <time>2016-10-01T09:32:27Z</time>
      </trkpt>
      <trkpt lat="48.45789" lon="-4.33578">
        <ele>130.58</ele>
        <time>2016-10-01T09:32:30Z</time>
      </trkpt>
      <trkpt lat="48.4579" lon="-4.3355">
        <ele>127.66</ele>
        <time>2016-10-01T09:32:33Z</time>
      </trkpt>
      <trkpt lat="48.45784" lon="-4.33522">
        <ele>126.65</ele>
        <time>2016-10-01T09:32:37Z</time>
      </trkpt>
      <trkpt lat="48.45764" lon="-4.3352">
        <ele>125.42</ele>
        <time>2016-10-01T09:32:41Z</time>
      </trkpt>
      <trkpt lat="48.45745" lon="-4.33527">
        <ele>124.77</ele>
        <time>2016-10-01T09:32:44Z</time>
      </trkpt>
      <trkpt lat="48.45726" lon="-4.33535">
        <ele>124.58</ele>
        <time>2016-10-01T09:32:47Z</time>
      </trkpt>
      <trkpt lat="48.45705" lon="-4.33542">
        <ele>121.98</ele>
        <time>2016-10-01T09:32:50Z</time>
      </trkpt>
      <trkpt lat="48.45684" lon="-4.33548">
        <ele>121.58</ele>
        <time>2016-10-01T09:32:53Z</time>
      </trkpt>
      <trkpt lat="48.45661" lon="-4.33555">
        <ele>119.59</ele>
        <time>2016-10-01T09:32:56Z</time>
      </trkpt>
      <trkpt lat="48.45637" lon="-4.33558">
        <ele>118.78</ele>
        <time>2016-10-01T09:32:59Z</time>
      </trkpt>
      <trkpt lat="48.45612" lon="-4.33555">
        <ele>119.38</ele>
        <time>2016-10-01T09:33:02Z</time>
      </trkpt>
      <trkpt lat="48.4559" lon="-4.33547">
        <ele>117.78</ele>
        <time>2016-10-01T09:33:05Z</time>
      </trkpt>
      <trkpt lat="48.45572" lon="-4.33542">
        <ele>116.97</ele>
        <time>2016-10-01T09:33:08Z</time>
      </trkpt>
      <trkpt lat="48.45561" lon="-4.33514">
        <ele>116.51</ele>
        <time>2016-10-01T09:33:13Z</time>
      </trkpt>
      <trkpt lat="48.45553" lon="-4.33479">
        <ele>114.62</ele>
        <time>2016-10-01T09:33:17Z</time>
      </trkpt>
      <trkpt lat="48.45551" lon="-4.33446">
        <ele>113.58</ele>
        <time>2016-10-01T09:33:21Z</time>
      </trkpt>
      <trkpt lat="48.45554" lon="-4.33411">
        <ele>116.49</ele>
        <time>2016-10-01T09:33:25Z</time>
      </trkpt>
      <trkpt lat="48.45552" lon="-4.3338">
        <ele>115.62</ele>
        <time>2016-10-01T09:33:29Z</time>
      </trkpt>
      <trkpt lat="48.45552" lon="-4.33348">
        <ele>114.58</ele>
        <time>2016-10-01T09:33:33Z</time>
      </trkpt>
      <trkpt lat="48.45548" lon="-4.33317">
        <ele>115.38</ele>
        <time>2016-10-01T09:33:37Z</time>
      </trkpt>
      <trkpt lat="48.45551" lon="-4.33284">
        <ele>119.52</ele>
        <time>2016-10-01T09:33:41Z</time>
      </trkpt>
      <trkpt lat="48.45555" lon="-4.33258">
        <ele>119.61</ele>
        <time>2016-10-01T09:33:44Z</time>
      </trkpt>
      <trkpt lat="48.45562" lon="-4.33225">
        <ele>118.58</ele>
        <time>2016-10-01T09:33:48Z</time>
      </trkpt>
      <trkpt lat="48.45573" lon="-4.33194">
        <ele>119.38</ele>
        <time>2016-10-01T09:33:52Z</time>
      </trkpt>
      <trkpt lat="48.45578" lon="-4.33166">
        <ele>119.58</ele>
        <time>2016-10-01T09:33:56Z</time>
      </trkpt>
      <trkpt lat="48.45587" lon="-4.33138">
        <ele>118.39</ele>
        <time>2016-10-01T09:34:00Z</time>
      </trkpt>
      <trkpt lat="48.456" lon="-4.33111">
        <ele>120.37</ele>
        <time>2016-10-01T09:34:04Z</time>
      </trkpt>
      <trkpt lat="48.45606" lon="-4.33084">
        <ele>120.64</ele>
        <time>2016-10-01T09:34:07Z</time>
      </trkpt>
      <trkpt lat="48.45603" lon="-4.33048">
        <ele>122.53</ele>
        <time>2016-10-01T09:34:11Z</time>
      </trkpt>
      <trkpt lat="48.45601" lon="-4.3302">
        <ele>119.86</ele>
        <time>2016-10-01T09:34:14Z</time>
      </trkpt>
      <trkpt lat="48.45596" lon="-4.32993">
        <ele>116.79</ele>
        <time>2016-10-01T09:34:18Z</time>
      </trkpt>
      <trkpt lat="48.45593" lon="-4.32965">
        <ele>117.54</ele>
        <time>2016-10-01T09:34:21Z</time>
      </trkpt>
      <trkpt lat="48.4559" lon="-4.32933">
        <ele>117.58</ele>
        <time>2016-10-01T09:34:24Z</time>
      </trkpt>
      <trkpt lat="48.45588" lon="-4.32897">
        <ele>116.62</ele>
        <time>2016-10-01T09:34:27Z</time>
      </trkpt>
      <trkpt lat="48.45583" lon="-4.32864">
        <ele>117.34</ele>
        <time>2016-10-01T09:34:31Z</time>
      </trkpt>
      <trkpt lat="48.45582" lon="-4.3283">
        <ele>115.78</ele>
        <time>2016-10-01T09:34:36Z</time>
      </trkpt>
      <trkpt lat="48.456" lon="-4.32832">
        <ele>122.16</ele>
        <time>2016-10-01T09:34:41Z</time>
      </trkpt>
      <trkpt lat="48.45623" lon="-4.32826">
        <ele>127.56</ele>
        <time>2016-10-01T09:34:47Z</time>
      </trkpt>
      <trkpt lat="48.45635" lon="-4.32798">
        <ele>128.01</ele>
        <time>2016-10-01T09:34:52Z</time>
      </trkpt>
      <trkpt lat="48.45644" lon="-4.32765">
        <ele>129.38</ele>
        <time>2016-10-01T09:34:57Z</time>
      </trkpt>
      <trkpt lat="48.45656" lon="-4.32741">
        <ele>129.61</ele>
        <time>2016-10-01T09:35:01Z</time>
      </trkpt>
      <trkpt lat="48.4567" lon="-4.32722">
        <ele>128.74</ele>
        <time>2016-10-01T09:35:05Z</time>
      </trkpt>
      <trkpt lat="48.45689" lon="-4.32715">
        <ele>128.78</ele>
        <time>2016-10-01T09:35:09Z</time>
      </trkpt>
      <trkpt lat="48.45704" lon="-4.32693">
        <ele>126.59</ele>
        <time>2016-10-01T09:35:13Z</time>
      </trkpt>
      <trkpt lat="48.45727" lon="-4.32702">
        <ele>127.36</ele>
        <time>2016-10-01T09:35:17Z</time>
      </trkpt>
      <trkpt lat="48.45747" lon="-4.327">
        <ele>124.98</ele>
        <time>2016-10-01T09:35:20Z</time>
      </trkpt>
      <trkpt lat="48.45767" lon="-4.327">
        <ele>122.14</ele>
        <time>2016-10-01T09:35:24Z</time>
      </trkpt>
      <trkpt lat="48.45786" lon="-4.32695">
        <ele>117.79</ele>
        <time>2016-10-01T09:35:28Z</time>
      </trkpt>
      <trkpt lat="48.45806" lon="-4.32692">
        <ele>117.61</ele>
        <time>2016-10-01T09:35:31Z</time>
      </trkpt>
      <trkpt lat="48.45824" lon="-4.32695">
        <ele>116.62</ele>
        <time>2016-10-01T09:35:34Z</time>
      </trkpt>
      <trkpt lat="48.45844" lon="-4.32697">
        <ele>116.58</ele>
        <time>2016-10-01T09:35:36Z</time>
      </trkpt>
      <trkpt lat="48.45864" lon="-4.32698">
        <ele>114.78</ele>
        <time>2016-10-01T09:35:39Z</time>
      </trkpt>
      <trkpt lat="48.45883" lon="-4.32692">
        <ele>112.75</ele>
        <time>2016-10-01T09:35:43Z</time>
      </trkpt>
      <trkpt lat="48.45888" lon="-4.32663">
        <ele>113.18</ele>
        <time>2016-10-01T09:35:47Z</time>
      </trkpt>
      <trkpt lat="48.45887" lon="-4.32636">
        <ele>111.78</ele>
        <time>2016-10-01T09:35:51Z</time>
      </trkpt>
      <trkpt lat="48.45893" lon="-4.32604">
        <ele>109.75</ele>
        <time>2016-10-01T09:35:55Z</time>
      </trkpt>
      <trkpt lat="48.45905" lon="-4.32583">
        <ele>112.94</ele>
        <time>2016-10-01T09:35:58Z</time>
      </trkpt>
      <trkpt lat="48.45919" lon="-4.32565">
        <ele>112.64</ele>
        <time>2016-10-01T09:36:01Z</time>
      </trkpt>
      <trkpt lat="48.45922" lon="-4.32536">
        <ele>113.54</ele>
        <time>2016-10-01T09:36:05Z</time>
      </trkpt>
      <trkpt lat="48.45926" lon="-4.32505">
        <ele>113.58</ele>
        <time>2016-10-01T09:36:09Z</time>
      </trkpt>
      <trkpt lat="48.45928" lon="-4.32471">
        <ele>111.78</ele>
        <time>2016-10-01T09:36:12Z</time>
      </trkpt>
      <trkpt lat="48.45929" lon="-4.32437">
        <ele>110.58</ele>
        <time>2016-10-01T09:36:16Z</time>
      </trkpt>
      <trkpt lat="48.45936" lon="-4.32411">
        <ele>110.77</ele>
        <time>2016-10-01T09:36:20Z</time>
      </trkpt>
      <trkpt lat="48.45946" lon="-4.32385">
        <ele>111.57</ele>
        <time>2016-10-01T09:36:24Z</time>
      </trkpt>
      <trkpt lat="48.45963" lon="-4.32375">
        <ele>109.5</ele>
        <time>2016-10-01T09:36:28Z</time>
      </trkpt>
      <trkpt lat="48.45986" lon="-4.32373">
        <ele>107.41</ele>
        <time>2016-10-01T09:36:32Z</time>
      </trkpt>
      <trkpt lat="48.46009" lon="-4.32376">
        <ele>105.62</ele>
        <time>2016-10-01T09:36:36Z</time>
      </trkpt>
      <trkpt lat="48.46029" lon="-4.32374">
        <ele>103.62</ele>
        <time>2016-10-01T09:36:39Z</time>
      </trkpt>
      <trkpt lat="48.46047" lon="-4.32375">
        <ele>104.57</ele>
        <time>2016-10-01T09:36:42Z</time>
      </trkpt>
      <trkpt lat="48.46058" lon="-4.32352">
        <ele>104.58</ele>
        <time>2016-10-01T09:36:45Z</time>
      </trkpt>
      <trkpt lat="48.46061" lon="-4.32323">
        <ele>101.82</ele>
        <time>2016-10-01T09:36:48Z</time>
      </trkpt>
      <trkpt lat="48.46058" lon="-4.32292">
        <ele>103.53</ele>
        <time>2016-10-01T09:36:51Z</time>
      </trkpt>
      <trkpt lat="48.46056" lon="-4.32256">
        <ele>100.86</ele>
        <time>2016-10-01T09:36:54Z</time>
      </trkpt>
      <trkpt lat="48.46057" lon="-4.32219">
        <ele>102.4</ele>
        <time>2016-10-01T09:36:58Z</time>
      </trkpt>
      <trkpt lat="48.46056" lon="-4.32188">
        <ele>101.36</ele>
        <time>2016-10-01T09:37:01Z</time>
      </trkpt>
      <trkpt lat="48.4606" lon="-4.32161">
        <ele>102.37</ele>
        <time>2016-10-01T09:37:04Z</time>
      </trkpt>
      <trkpt lat="48.46065" lon="-4.32132">
        <ele>100.78</ele>
        <time>2016-10-01T09:37:10Z</time>
      </trkpt>
      <trkpt lat="48.46083" lon="-4.32116">
        <ele>100.37</ele>
        <time>2016-10-01T09:37:19Z</time>
      </trkpt>
      <trkpt lat="48.46095" lon="-4.32096">
        <ele>96.83</ele>
        <time>2016-10-01T09:37:28Z</time>
      </trkpt>
      <trkpt lat="48.46108" lon="-4.32075">
        <ele>91.78</ele>
        <time>2016-10-01T09:37:36Z</time>
      </trkpt>
      <trkpt lat="48.46123" lon="-4.32051">
        <ele>96.13</ele>
        <time>2016-10-01T09:37:41Z</time>
      </trkpt>
      <trkpt lat="48.46134" lon="-4.3203">
        <ele>97.61</ele>
        <time>2016-10-01T09:37:45Z</time>
      </trkpt>
      <trkpt lat="48.46144" lon="-4.32002">
        <ele>99.57</ele>
        <time>2016-10-01T09:37:50Z</time>
      </trkpt>
      <trkpt lat="48.46152" lon="-4.31977">
        <ele>100.54</ele>
        <time>2016-10-01T09:37:53Z</time>
      </trkpt>
      <trkpt lat="48.4616" lon="-4.3195">
        <ele>99.97</ele>
        <time>2016-10-01T09:37:56Z</time>
      </trkpt>
      <trkpt lat="48.46161" lon="-4.31921">
        <ele>103.69</ele>
        <time>2016-10-01T09:38:00Z</time>
      </trkpt>
      <trkpt lat="48.46162" lon="-4.31886">
        <ele>104.22</ele>
        <time>2016-10-01T09:38:04Z</time>
      </trkpt>
      <trkpt lat="48.46164" lon="-4.31853">
        <ele>104.77</ele>
        <time>2016-10-01T09:38:07Z</time>
      </trkpt>
      <trkpt lat="48.4617" lon="-4.31825">
        <ele>102.82</ele>
        <time>2016-10-01T09:38:10Z</time>
      </trkpt>
      <trkpt lat="48.46178" lon="-4.31791">
        <ele>101.78</ele>
        <time>2016-10-01T09:38:14Z</time>
      </trkpt>
      <trkpt lat="48.46186" lon="-4.31759">
        <ele>100.58</ele>
        <time>2016-10-01T09:38:18Z</time>
      </trkpt>
      <trkpt lat="48.4619" lon="-4.31724">
        <ele>102.49</ele>
        <time>2016-10-01T09:38:22Z</time>
      </trkpt>
      <trkpt lat="48.46192" lon="-4.31689">
        <ele>100.62</ele>
        <time>2016-10-01T09:38:26Z</time>
      </trkpt>
      <trkpt lat="48.46197" lon="-4.31659">
        <ele>101.38</ele>
        <time>2016-10-01T09:38:30Z</time>
      </trkpt>
      <trkpt lat="48.46202" lon="-4.31628">
        <ele>100.81</ele>
        <time>2016-10-01T09:38:34Z</time>
      </trkpt>
      <trkpt lat="48.46207" lon="-4.31596">
        <ele>103.37</ele>
        <time>2016-10-01T09:38:38Z</time>
      </trkpt>
      <trkpt lat="48.46211" lon="-4.31569">
        <ele>104.53</ele>
        <time>2016-10-01T09:38:41Z</time>
      </trkpt>
      <trkpt lat="48.46211" lon="-4.3153">
        <ele>103.46</ele>
        <time>2016-10-01T09:38:45Z</time>
      </trkpt>
      <trkpt lat="48.46219" lon="-4.31502">
        <ele>104.54</ele>
        <time>2016-10-01T09:38:48Z</time>
      </trkpt>
      <trkpt lat="48.46224" lon="-4.31476">
        <ele>104.42</ele>
        <time>2016-10-01T09:38:51Z</time>
      </trkpt>
      <trkpt lat="48.46232" lon="-4.31447">
        <ele>103.81</ele>
        <time>2016-10-01T09:38:54Z</time>
      </trkpt>
      <trkpt lat="48.46246" lon="-4.31419">
        <ele>104.38</ele>
        <time>2016-10-01T09:38:57Z</time>
      </trkpt>
      <trkpt lat="48.46259" lon="-4.31399">
        <ele>99.87</ele>
        <time>2016-10-01T09:39:01Z</time>
      </trkpt>
      <trkpt lat="48.46274" lon="-4.31376">
        <ele>97.74</ele>
        <time>2016-10-01T09:39:07Z</time>
      </trkpt>
      <trkpt lat="48.46282" lon="-4.31346">
        <ele>97.35</ele>
        <time>2016-10-01T09:39:11Z</time>
      </trkpt>
      <trkpt lat="48.4629" lon="-4.31319">
        <ele>95.78</ele>
        <time>2016-10-01T09:39:15Z</time>
      </trkpt>
      <trkpt lat="48.46292" lon="-4.3129">
        <ele>96.57</ele>
        <time>2016-10-01T09:39:19Z</time>
      </trkpt>
      <trkpt lat="48.46301" lon="-4.31261">
        <ele>96.58</ele>
        <time>2016-10-01T09:39:23Z</time>
      </trkpt>
      <trkpt lat="48.46303" lon="-4.31233">
        <ele>95.77</ele>
        <time>2016-10-01T09:39:27Z</time>
      </trkpt>
      <trkpt lat="48.46305" lon="-4.31202">
        <ele>94.78</ele>
        <time>2016-10-01T09:39:30Z</time>
      </trkpt>
      <trkpt lat="48.46311" lon="-4.3117">
        <ele>99.28</ele>
        <time>2016-10-01T09:39:33Z</time>
      </trkpt>
      <trkpt lat="48.46297" lon="-4.3115">
        <ele>100.58</ele>
        <time>2016-10-01T09:39:38Z</time>
      </trkpt>
      <trkpt lat="48.46279" lon="-4.31158">
        <ele>102.76</ele>
        <time>2016-10-01T09:39:42Z</time>
      </trkpt>
      <trkpt lat="48.4626" lon="-4.3117">
        <ele>103.57</ele>
        <time>2016-10-01T09:39:46Z</time>
      </trkpt>
      <trkpt lat="48.46238" lon="-4.31178">
        <ele>100.82</ele>
        <time>2016-10-01T09:39:50Z</time>
      </trkpt>
      <trkpt lat="48.4622" lon="-4.31181">
        <ele>98.59</ele>
        <time>2016-10-01T09:39:53Z</time>
      </trkpt>
      <trkpt lat="48.462" lon="-4.31183">
        <ele>96.82</ele>
        <time>2016-10-01T09:39:56Z</time>
      </trkpt>
      <trkpt lat="48.46177" lon="-4.31173">
        <ele>95.59</ele>
        <time>2016-10-01T09:39:59Z</time>
      </trkpt>
      <trkpt lat="48.46163" lon="-4.31149">
        <ele>95.42</ele>
        <time>2016-10-01T09:40:01Z</time>
      </trkpt>
      <trkpt lat="48.46147" lon="-4.31133">
        <ele>94.77</ele>
        <time>2016-10-01T09:40:03Z</time>
      </trkpt>
      <trkpt lat="48.46128" lon="-4.31124">
        <ele>94.58</ele>
        <time>2016-10-01T09:40:05Z</time>
      </trkpt>
      <trkpt lat="48.46106" lon="-4.31124">
        <ele>92.02</ele>
        <time>2016-10-01T09:40:08Z</time>
      </trkpt>
      <trkpt lat="48.46087" lon="-4.31128">
        <ele>92.73</ele>
        <time>2016-10-01T09:40:11Z</time>
      </trkpt>
      <trkpt lat="48.46066" lon="-4.3113">
        <ele>91.62</ele>
        <time>2016-10-01T09:40:14Z</time>
      </trkpt>
      <trkpt lat="48.46042" lon="-4.31143">
        <ele>92.38</ele>
        <time>2016-10-01T09:40:17Z</time>
      </trkpt>
      <trkpt lat="48.46024" lon="-4.31147">
        <ele>92.73</ele>
        <time>2016-10-01T09:40:20Z</time>
      </trkpt>
      <trkpt lat="48.46001" lon="-4.31153">
        <ele>95.17</ele>
        <time>2016-10-01T09:40:24Z</time>
      </trkpt>
      <trkpt lat="48.45981" lon="-4.3116">
        <ele>97.41</ele>
        <time>2016-10-01T09:40:28Z</time>
      </trkpt>
      <trkpt lat="48.45961" lon="-4.31163">
        <ele>96.74</ele>
        <time>2016-10-01T09:40:32Z</time>
      </trkpt>
      <trkpt lat="48.4594" lon="-4.31172">
        <ele>96.61</ele>
        <time>2016-10-01T09:40:36Z</time>
      </trkpt>
      <trkpt lat="48.45922" lon="-4.31175">
        <ele>96.74</ele>
        <time>2016-10-01T09:40:39Z</time>
      </trkpt>
      <trkpt lat="48.45902" lon="-4.31181">
        <ele>96.58</ele>
        <time>2016-10-01T09:40:42Z</time>
      </trkpt>
      <trkpt lat="48.45884" lon="-4.31186">
        <ele>97.54</ele>
        <time>2016-10-01T09:40:45Z</time>
      </trkpt>
      <trkpt lat="48.45862" lon="-4.3119">
        <ele>97.58</ele>
        <time>2016-10-01T09:40:49Z</time>
      </trkpt>
      <trkpt lat="48.45844" lon="-4.31195">
        <ele>98.57</ele>
        <time>2016-10-01T09:40:53Z</time>
      </trkpt>
      <trkpt lat="48.45823" lon="-4.31202">
        <ele>97.58</ele>
        <time>2016-10-01T09:40:57Z</time>
      </trkpt>
      <trkpt lat="48.45804" lon="-4.31203">
        <ele>98.54</ele>
        <time>2016-10-01T09:41:01Z</time>
      </trkpt>
      <trkpt lat="48.45786" lon="-4.31205">
        <ele>98.38</ele>
        <time>2016-10-01T09:41:05Z</time>
      </trkpt>
      <trkpt lat="48.45766" lon="-4.31209">
        <ele>98.57</ele>
        <time>2016-10-01T09:41:10Z</time>
      </trkpt>
      <trkpt lat="48.45747" lon="-4.31197">
        <ele>102.52</ele>
        <time>2016-10-01T09:41:16Z</time>
      </trkpt>
      <trkpt lat="48.4575" lon="-4.31168">
        <ele>101.78</ele>
        <time>2016-10-01T09:41:21Z</time>
      </trkpt>
      <trkpt lat="48.45748" lon="-4.31135">
        <ele>102.57</ele>
        <time>2016-10-01T09:41:25Z</time>
      </trkpt>
      <trkpt lat="48.45748" lon="-4.31107">
        <ele>100.82</ele>
        <time>2016-10-01T09:41:28Z</time>
      </trkpt>
      <trkpt lat="48.45754" lon="-4.31074">
        <ele>99.59</ele>
        <time>2016-10-01T09:41:31Z</time>
      </trkpt>
      <trkpt lat="48.45763" lon="-4.31045">
        <ele>102.46</ele>
        <time>2016-10-01T09:41:34Z</time>
      </trkpt>
      <trkpt lat="48.45769" lon="-4.31018">
        <ele>105.52</ele>
        <time>2016-10-01T09:41:37Z</time>
      </trkpt>
      <trkpt lat="48.45775" lon="-4.3099">
        <ele>107.53</ele>
        <time>2016-10-01T09:41:40Z</time>
      </trkpt>
      <trkpt lat="48.45781" lon="-4.30963">
        <ele>106.58</ele>
        <time>2016-10-01T09:41:43Z</time>
      </trkpt>
      <trkpt lat="48.45788" lon="-4.30934">
        <ele>104.46</ele>
        <time>2016-10-01T09:41:46Z</time>
      </trkpt>
      <trkpt lat="48.458" lon="-4.30907">
        <ele>107.69</ele>
        <time>2016-10-01T09:41:50Z</time>
      </trkpt>
      <trkpt lat="48.4581" lon="-4.30878">
        <ele>108.14</ele>
        <time>2016-10-01T09:41:54Z</time>
      </trkpt>
      <trkpt lat="48.45815" lon="-4.3085">
        <ele>105.98</ele>
        <time>2016-10-01T09:41:58Z</time>
      </trkpt>
      <trkpt lat="48.45822" lon="-4.30823">
        <ele>99.46</ele>
        <time>2016-10-01T09:42:02Z</time>
      </trkpt>
      <trkpt lat="48.45833" lon="-4.30801">
        <ele>102.6</ele>
        <time>2016-10-01T09:42:06Z</time>
      </trkpt>
      <trkpt lat="48.45845" lon="-4.30772">
        <ele>100.62</ele>
        <time>2016-10-01T09:42:10Z</time>
      </trkpt>
      <trkpt lat="48.45858" lon="-4.30743">
        <ele>99.46</ele>
        <time>2016-10-01T09:42:14Z</time>
      </trkpt>
      <trkpt lat="48.45874" lon="-4.30718">
        <ele>96.82</ele>
        <time>2016-10-01T09:42:19Z</time>
      </trkpt>
      <trkpt lat="48.45887" lon="-4.30699">
        <ele>95.43</ele>
        <time>2016-10-01T09:42:22Z</time>
      </trkpt>
      <trkpt lat="48.45872" lon="-4.30684">
        <ele>93.82</ele>
        <time>2016-10-01T09:42:28Z</time>
      </trkpt>
      <trkpt lat="48.45854" lon="-4.30667">
        <ele>90.99</ele>
        <time>2016-10-01T09:42:31Z</time>
      </trkpt>
      <trkpt lat="48.45837" lon="-4.3065">
        <ele>87.59</ele>
        <time>2016-10-01T09:42:35Z</time>
      </trkpt>
      <trkpt lat="48.45819" lon="-4.30631">
        <ele>88.6</ele>
        <time>2016-10-01T09:42:38Z</time>
      </trkpt>
      <trkpt lat="48.45799" lon="-4.30613">
        <ele>90.14</ele>
        <time>2016-10-01T09:42:41Z</time>
      </trkpt>
      <trkpt lat="48.4578" lon="-4.30591">
        <ele>89.62</ele>
        <time>2016-10-01T09:42:45Z</time>
      </trkpt>
      <trkpt lat="48.45756" lon="-4.30573">
        <ele>88.62</ele>
        <time>2016-10-01T09:42:48Z</time>
      </trkpt>
      <trkpt lat="48.45756" lon="-4.30543">
        <ele>88.58</ele>
        <time>2016-10-01T09:42:53Z</time>
      </trkpt>
      <trkpt lat="48.45763" lon="-4.30513">
        <ele>87.78</ele>
        <time>2016-10-01T09:42:57Z</time>
      </trkpt>
      <trkpt lat="48.45765" lon="-4.30485">
        <ele>85.5</ele>
        <time>2016-10-01T09:43:03Z</time>
      </trkpt>
      <trkpt lat="48.45764" lon="-4.30454">
        <ele>81.58</ele>
        <time>2016-10-01T09:43:11Z</time>
      </trkpt>
      <trkpt lat="48.45745" lon="-4.30445">
        <ele>73.83</ele>
        <time>2016-10-01T09:43:21Z</time>
      </trkpt>
      <trkpt lat="48.45723" lon="-4.30444">
        <ele>72.58</ele>
        <time>2016-10-01T09:43:27Z</time>
      </trkpt>
      <trkpt lat="48.45705" lon="-4.30437">
        <ele>70.58</ele>
        <time>2016-10-01T09:43:34Z</time>
      </trkpt>
      <trkpt lat="48.45687" lon="-4.30435">
        <ele>69.57</ele>
        <time>2016-10-01T09:43:43Z</time>
      </trkpt>
      <trkpt lat="48.45669" lon="-4.30436">
        <ele>66.95</ele>
        <time>2016-10-01T09:43:55Z</time>
      </trkpt>
      <trkpt lat="48.45649" lon="-4.30438">
        <ele>64.78</ele>
        <time>2016-10-01T09:43:59Z</time>
      </trkpt>
      <trkpt lat="48.45628" lon="-4.30428">
        <ele>62.58</ele>
        <time>2016-10-01T09:44:05Z</time>
      </trkpt>
      <trkpt lat="48.45611" lon="-4.30419">
        <ele>59.78</ele>
        <time>2016-10-01T09:44:14Z</time>
      </trkpt>
      <trkpt lat="48.45593" lon="-4.30411">
        <ele>59.58</ele>
        <time>2016-10-01T09:44:23Z</time>
      </trkpt>
      <trkpt lat="48.45579" lon="-4.30393">
        <ele>57.62</ele>
        <time>2016-10-01T09:44:30Z</time>
      </trkpt>
      <trkpt lat="48.45566" lon="-4.30373">
        <ele>57.42</ele>
        <time>2016-10-01T09:44:44Z</time>
      </trkpt>
      <trkpt lat="48.45549" lon="-4.30366">
        <ele>53.62</ele>
        <time>2016-10-01T09:44:53Z</time>
      </trkpt>
      <trkpt lat="48.45532" lon="-4.30352">
        <ele>48.78</ele>
        <time>2016-10-01T09:45:02Z</time>
      </trkpt>
      <trkpt lat="48.45515" lon="-4.30343">
        <ele>47.78</ele>
        <time>2016-10-01T09:45:13Z</time>
      </trkpt>
      <trkpt lat="48.45496" lon="-4.30328">
        <ele>47.38</ele>
        <time>2016-10-01T09:45:23Z</time>
      </trkpt>
      <trkpt lat="48.45476" lon="-4.30328">
        <ele>47.78</ele>
        <time>2016-10-01T09:45:29Z</time>
      </trkpt>
      <trkpt lat="48.45455" lon="-4.30325">
        <ele>45.58</ele>
        <time>2016-10-01T09:45:37Z</time>
      </trkpt>
      <trkpt lat="48.45441" lon="-4.30308">
        <ele>44.61</ele>
        <time>2016-10-01T09:45:44Z</time>
      </trkpt>
      <trkpt lat="48.45426" lon="-4.30292">
        <ele>40.62</ele>
        <time>2016-10-01T09:45:50Z</time>
      </trkpt>
      <trkpt lat="48.45409" lon="-4.30277">
        <ele>41.57</ele>
        <time>2016-10-01T09:45:55Z</time>
      </trkpt>
      <trkpt lat="48.45394" lon="-4.30262">
        <ele>42.61</ele>
        <time>2016-10-01T09:45:59Z</time>
      </trkpt>
      <trkpt lat="48.45376" lon="-4.30244">
        <ele>41.58</ele>
        <time>2016-10-01T09:46:04Z</time>
      </trkpt>
      <trkpt lat="48.45357" lon="-4.30235">
        <ele>44.62</ele>
        <time>2016-10-01T09:46:12Z</time>
      </trkpt>
      <trkpt lat="48.45341" lon="-4.30218">
        <ele>44.57</ele>
        <time>2016-10-01T09:46:17Z</time>
      </trkpt>
      <trkpt lat="48.45327" lon="-4.30201">
        <ele>41.59</ele>
        <time>2016-10-01T09:46:31Z</time>
      </trkpt>
      <trkpt lat="48.45311" lon="-4.30186">
        <ele>43.49</ele>
        <time>2016-10-01T09:46:37Z</time>
      </trkpt>
      <trkpt lat="48.45293" lon="-4.30185">
        <ele>43.33</ele>
        <time>2016-10-01T09:46:43Z</time>
      </trkpt>
      <trkpt lat="48.45273" lon="-4.30182">
        <ele>43.42</ele>
        <time>2016-10-01T09:46:49Z</time>
      </trkpt>
      <trkpt lat="48.45256" lon="-4.30191">
        <ele>42.58</ele>
        <time>2016-10-01T09:46:55Z</time>
      </trkpt>
      <trkpt lat="48.45239" lon="-4.30205">
        <ele>39.79</ele>
        <time>2016-10-01T09:47:00Z</time>
      </trkpt>
      <trkpt lat="48.4522" lon="-4.30217">
        <ele>35.58</ele>
        <time>2016-10-01T09:47:06Z</time>
      </trkpt>
      <trkpt lat="48.45202" lon="-4.3023">
        <ele>35.73</ele>
        <time>2016-10-01T09:47:11Z</time>
      </trkpt>
      <trkpt lat="48.45185" lon="-4.30243">
        <ele>36.69</ele>
        <time>2016-10-01T09:47:16Z</time>
      </trkpt>
      <trkpt lat="48.45163" lon="-4.30254">
        <ele>33.46</ele>
        <time>2016-10-01T09:47:21Z</time>
      </trkpt>
      <trkpt lat="48.45146" lon="-4.30262">
        <ele>34.73</ele>
        <time>2016-10-01T09:47:24Z</time>
      </trkpt>
      <trkpt lat="48.45128" lon="-4.30265">
        <ele>34.58</ele>
        <time>2016-10-01T09:47:27Z</time>
      </trkpt>
      <trkpt lat="48.45106" lon="-4.30259">
        <ele>34.58</ele>
        <time>2016-10-01T09:47:34Z</time>
      </trkpt>
      <trkpt lat="48.45087" lon="-4.30252">
        <ele>34.54</ele>
        <time>2016-10-01T09:47:39Z</time>
      </trkpt>
      <trkpt lat="48.45069" lon="-4.30239">
        <ele>38.33</ele>
        <time>2016-10-01T09:47:44Z</time>
      </trkpt>
      <trkpt lat="48.45049" lon="-4.3023">
        <ele>36.58</ele>
        <time>2016-10-01T09:47:50Z</time>
      </trkpt>
      <trkpt lat="48.45029" lon="-4.30221">
        <ele>36.54</ele>
        <time>2016-10-01T09:47:56Z</time>
      </trkpt>
      <trkpt lat="48.4501" lon="-4.30214">
        <ele>35.78</ele>
        <time>2016-10-01T09:48:00Z</time>
      </trkpt>
      <trkpt lat="48.44995" lon="-4.3019">
        <ele>34.61</ele>
        <time>2016-10-01T09:48:08Z</time>
      </trkpt>
      <trkpt lat="48.44983" lon="-4.30167">
        <ele>34.58</ele>
        <time>2016-10-01T09:48:14Z</time>
      </trkpt>
      <trkpt lat="48.44969" lon="-4.30149">
        <ele>34.33</ele>
        <time>2016-10-01T09:48:22Z</time>
      </trkpt>
      <trkpt lat="48.44952" lon="-4.30132">
        <ele>37.53</ele>
        <time>2016-10-01T09:48:27Z</time>
      </trkpt>
      <trkpt lat="48.44937" lon="-4.30108">
        <ele>39.17</ele>
        <time>2016-10-01T09:48:31Z</time>
      </trkpt>
      <trkpt lat="48.4492" lon="-4.30093">
        <ele>40.54</ele>
        <time>2016-10-01T09:48:35Z</time>
      </trkpt>
      <trkpt lat="48.44901" lon="-4.30074">
        <ele>37.82</ele>
        <time>2016-10-01T09:48:40Z</time>
      </trkpt>
      <trkpt lat="48.44895" lon="-4.30048">
        <ele>39.3</ele>
        <time>2016-10-01T09:48:46Z</time>
      </trkpt>
      <trkpt lat="48.44877" lon="-4.30039">
        <ele>41.57</ele>
        <time>2016-10-01T09:48:52Z</time>
      </trkpt>
      <trkpt lat="48.44857" lon="-4.3005">
        <ele>41.62</ele>
        <time>2016-10-01T09:48:58Z</time>
      </trkpt>
      <trkpt lat="48.44839" lon="-4.30063">
        <ele>40.43</ele>
        <time>2016-10-01T09:49:03Z</time>
      </trkpt>
      <trkpt lat="48.44816" lon="-4.3007">
        <ele>37.05</ele>
        <time>2016-10-01T09:49:06Z</time>
      </trkpt>
      <trkpt lat="48.44794" lon="-4.3008">
        <ele>33.66</ele>
        <time>2016-10-01T09:49:11Z</time>
      </trkpt>
      <trkpt lat="48.44775" lon="-4.3008">
        <ele>33.38</ele>
        <time>2016-10-01T09:49:15Z</time>
      </trkpt>
      <trkpt lat="48.44757" lon="-4.30079">
        <ele>32.77</ele>
        <time>2016-10-01T09:49:18Z</time>
      </trkpt>
      <trkpt lat="48.44737" lon="-4.30075">
        <ele>30.79</ele>
        <time>2016-10-01T09:49:21Z</time>
      </trkpt>
      <trkpt lat="48.44717" lon="-4.30073">
        <ele>32.18</ele>
        <time>2016-10-01T09:49:27Z</time>
      </trkpt>
      <trkpt lat="48.44699" lon="-4.30077">
        <ele>33.77</ele>
        <time>2016-10-01T09:49:35Z</time>
      </trkpt>
      <trkpt lat="48.44681" lon="-4.30087">
        <ele>34.38</ele>
        <time>2016-10-01T09:49:39Z</time>
      </trkpt>
      <trkpt lat="48.44662" lon="-4.30087">
        <ele>32.81</ele>
        <time>2016-10-01T09:49:47Z</time>
      </trkpt>
      <trkpt lat="48.44645" lon="-4.30096">
        <ele>33.57</ele>
        <time>2016-10-01T09:49:51Z</time>
      </trkpt>
      <trkpt lat="48.44624" lon="-4.30094">
        <ele>32.62</ele>
        <time>2016-10-01T09:49:56Z</time>
      </trkpt>
      <trkpt lat="48.44621" lon="-4.30066">
        <ele>31.78</ele>
        <time>2016-10-01T09:50:00Z</time>
      </trkpt>
      <trkpt lat="48.44604" lon="-4.30047">
        <ele>30.74</ele>
        <time>2016-10-01T09:50:04Z</time>
      </trkpt>
      <trkpt lat="48.44589" lon="-4.30024">
        <ele>30.54</ele>
        <time>2016-10-01T09:50:08Z</time>
      </trkpt>
      <trkpt lat="48.44579" lon="-4.29996">
        <ele>28.94</ele>
        <time>2016-10-01T09:50:11Z</time>
      </trkpt>
      <trkpt lat="48.44574" lon="-4.29963">
        <ele>27.62</ele>
        <time>2016-10-01T09:50:15Z</time>
      </trkpt>
      <trkpt lat="48.44565" lon="-4.29933">
        <ele>27.42</ele>
        <time>2016-10-01T09:50:19Z</time>
      </trkpt>
      <trkpt lat="48.44561" lon="-4.29906">
        <ele>27.57</ele>
        <time>2016-10-01T09:50:22Z</time>
      </trkpt>
      <trkpt lat="48.44554" lon="-4.29873">
        <ele>27.38</ele>
        <time>2016-10-01T09:50:26Z</time>
      </trkpt>
      <trkpt lat="48.4456" lon="-4.29844">
        <ele>23.82</ele>
        <time>2016-10-01T09:50:31Z</time>
      </trkpt>
      <trkpt lat="48.44544" lon="-4.2983">
        <ele>23.77</ele>
        <time>2016-10-01T09:50:35Z</time>
      </trkpt>
      <trkpt lat="48.44526" lon="-4.29828">
        <ele>25.21</ele>
        <time>2016-10-01T09:50:41Z</time>
      </trkpt>
      <trkpt lat="48.44508" lon="-4.29829">
        <ele>26.72</ele>
        <time>2016-10-01T09:50:47Z</time>
      </trkpt>
      <trkpt lat="48.44489" lon="-4.29829">
        <ele>24.77</ele>
        <time>2016-10-01T09:50:55Z</time>
      </trkpt>
      <trkpt lat="48.44477" lon="-4.29808">
        <ele>22.61</ele>
        <time>2016-10-01T09:51:17Z</time>
      </trkpt>
      <trkpt lat="48.44472" lon="-4.29778">
        <ele>19.66</ele>
        <time>2016-10-01T09:51:21Z</time>
      </trkpt>
      <trkpt lat="48.44475" lon="-4.29743">
        <ele>20.5</ele>
        <time>2016-10-01T09:51:25Z</time>
      </trkpt>
      <trkpt lat="48.44478" lon="-4.29711">
        <ele>19.74</ele>
        <time>2016-10-01T09:51:29Z</time>
      </trkpt>
      <trkpt lat="48.44482" lon="-4.29676">
        <ele>18.65</ele>
        <time>2016-10-01T09:51:33Z</time>
      </trkpt>
      <trkpt lat="48.44484" lon="-4.29644">
        <ele>20.77</ele>
        <time>2016-10-01T09:51:37Z</time>
      </trkpt>
      <trkpt lat="48.4448" lon="-4.29617">
        <ele>21.57</ele>
        <time>2016-10-01T09:51:44Z</time>
      </trkpt>
      <trkpt lat="48.44486" lon="-4.29583">
        <ele>21.58</ele>
        <time>2016-10-01T09:51:49Z</time>
      </trkpt>
      <trkpt lat="48.44474" lon="-4.29561">
        <ele>18.85</ele>
        <time>2016-10-01T09:52:00Z</time>
      </trkpt>
      <trkpt lat="48.44466" lon="-4.29589">
        <ele>23.82</ele>
        <time>2016-10-01T09:52:29Z</time>
      </trkpt>
      <trkpt lat="48.44463" lon="-4.29618">
        <ele>28.18</ele>
        <time>2016-10-01T09:52:40Z</time>
      </trkpt>
      <trkpt lat="48.44459" lon="-4.29648">
        <ele>28.58</ele>
        <time>2016-10-01T09:53:04Z</time>
      </trkpt>
      <trkpt lat="48.44452" lon="-4.29676">
        <ele>28.62</ele>
        <time>2016-10-01T09:53:11Z</time>
      </trkpt>
      <trkpt lat="48.44443" lon="-4.297">
        <ele>26.81</ele>
        <time>2016-10-01T09:53:17Z</time>
      </trkpt>
      <trkpt lat="48.44435" lon="-4.29727">
        <ele>28.54</ele>
        <time>2016-10-01T09:53:23Z</time>
      </trkpt>
      <trkpt lat="48.44426" lon="-4.29751">
        <ele>34.57</ele>
        <time>2016-10-01T09:53:30Z</time>
      </trkpt>
      <trkpt lat="48.4441" lon="-4.29763">
        <ele>38.58</ele>
        <time>2016-10-01T09:54:00Z</time>
      </trkpt>
      <trkpt lat="48.444" lon="-4.2979">
        <ele>40.6</ele>
        <time>2016-10-01T09:54:08Z</time>
      </trkpt>
      <trkpt lat="48.44391" lon="-4.29815">
        <ele>42.57</ele>
        <time>2016-10-01T09:54:13Z</time>
      </trkpt>
      <trkpt lat="48.44381" lon="-4.29844">
        <ele>45.33</ele>
        <time>2016-10-01T09:54:18Z</time>
      </trkpt>
      <trkpt lat="48.44364" lon="-4.2986">
        <ele>44.82</ele>
        <time>2016-10-01T09:54:27Z</time>
      </trkpt>
      <trkpt lat="48.44345" lon="-4.29876">
        <ele>46.58</ele>
        <time>2016-10-01T09:54:37Z</time>
      </trkpt>
      <trkpt lat="48.44324" lon="-4.29877">
        <ele>46.78</ele>
        <time>2016-10-01T09:54:45Z</time>
      </trkpt>
      <trkpt lat="48.44325" lon="-4.29849">
        <ele>53.55</ele>
        <time>2016-10-01T09:55:17Z</time>
      </trkpt>
      <trkpt lat="48.44341" lon="-4.29832">
        <ele>55.57</ele>
        <time>2016-10-01T09:55:38Z</time>
      </trkpt>
      <trkpt lat="48.44359" lon="-4.29816">
        <ele>51.82</ele>
        <time>2016-10-01T09:55:44Z</time>
      </trkpt>
      <trkpt lat="48.44364" lon="-4.29787">
        <ele>50.62</ele>
        <time>2016-10-01T09:55:52Z</time>
      </trkpt>
      <trkpt lat="48.44371" lon="-4.29761">
        <ele>57.57</ele>
        <time>2016-10-01T09:56:01Z</time>
      </trkpt>
      <trkpt lat="48.4437" lon="-4.29734">
        <ele>58.34</ele>
        <time>2016-10-01T09:56:08Z</time>
      </trkpt>
      <trkpt lat="48.44352" lon="-4.29725">
        <ele>57.54</ele>
        <time>2016-10-01T09:56:47Z</time>
      </trkpt>
      <trkpt lat="48.44333" lon="-4.29716">
        <ele>62.73</ele>
        <time>2016-10-01T09:56:59Z</time>
      </trkpt>
      <trkpt lat="48.44317" lon="-4.29727">
        <ele>63.54</ele>
        <time>2016-10-01T09:57:08Z</time>
      </trkpt>
      <trkpt lat="48.44294" lon="-4.29733">
        <ele>63.77</ele>
        <time>2016-10-01T09:57:15Z</time>
      </trkpt>
      <trkpt lat="48.44275" lon="-4.29733">
        <ele>58.58</ele>
        <time>2016-10-01T09:57:22Z</time>
      </trkpt>
      <trkpt lat="48.44255" lon="-4.29724">
        <ele>57.57</ele>
        <time>2016-10-01T09:57:30Z</time>
      </trkpt>
      <trkpt lat="48.44239" lon="-4.29712">
        <ele>56.61</ele>
        <time>2016-10-01T09:57:35Z</time>
      </trkpt>
      <trkpt lat="48.44221" lon="-4.29714">
        <ele>58.53</ele>
        <time>2016-10-01T09:57:45Z</time>
      </trkpt>
      <trkpt lat="48.44206" lon="-4.29697">
        <ele>59.53</ele>
        <time>2016-10-01T09:57:54Z</time>
      </trkpt>
      <trkpt lat="48.44204" lon="-4.29668">
        <ele>59.73</ele>
        <time>2016-10-01T09:58:09Z</time>
      </trkpt>
      <trkpt lat="48.44199" lon="-4.29641">
        <ele>64.61</ele>
        <time>2016-10-01T09:58:18Z</time>
      </trkpt>
      <trkpt lat="48.44205" lon="-4.29609">
        <ele>61.66</ele>
        <time>2016-10-01T09:58:27Z</time>
      </trkpt>
      <trkpt lat="48.44196" lon="-4.29583">
        <ele>61.53</ele>
        <time>2016-10-01T09:58:37Z</time>
      </trkpt>
      <trkpt lat="48.44178" lon="-4.29578">
        <ele>64.57</ele>
        <time>2016-10-01T09:58:46Z</time>
      </trkpt>
      <trkpt lat="48.44161" lon="-4.29591">
        <ele>66.15</ele>
        <time>2016-10-01T09:58:56Z</time>
      </trkpt>
      <trkpt lat="48.44143" lon="-4.29608">
        <ele>68.77</ele>
        <time>2016-10-01T09:59:04Z</time>
      </trkpt>
      <trkpt lat="48.44137" lon="-4.29639">
        <ele>67.8</ele>
        <time>2016-10-01T09:59:09Z</time>
      </trkpt>
      <trkpt lat="48.44128" lon="-4.29663">
        <ele>66.74</ele>
        <time>2016-10-01T09:59:14Z</time>
      </trkpt>
      <trkpt lat="48.44122" lon="-4.29692">
        <ele>64.42</ele>
        <time>2016-10-01T09:59:19Z</time>
      </trkpt>
      <trkpt lat="48.44111" lon="-4.2972">
        <ele>65.53</ele>
        <time>2016-10-01T09:59:23Z</time>
      </trkpt>
      <trkpt lat="48.44102" lon="-4.29744">
        <ele>65.42</ele>
        <time>2016-10-01T09:59:26Z</time>
      </trkpt>
      <trkpt lat="48.44093" lon="-4.29777">
        <ele>65.35</ele>
        <time>2016-10-01T09:59:30Z</time>
      </trkpt>
      <trkpt lat="48.44081" lon="-4.29801">
        <ele>67.37</ele>
        <time>2016-10-01T09:59:33Z</time>
      </trkpt>
      <trkpt lat="48.4407" lon="-4.29827">
        <ele>68.57</ele>
        <time>2016-10-01T09:59:36Z</time>
      </trkpt>
      <trkpt lat="48.44059" lon="-4.29849">
        <ele>70.37</ele>
        <time>2016-10-01T09:59:39Z</time>
      </trkpt>
      <trkpt lat="48.44046" lon="-4.29868">
        <ele>69.65</ele>
        <time>2016-10-01T09:59:42Z</time>
      </trkpt>
      <trkpt lat="48.44029" lon="-4.29898">
        <ele>65.19</ele>
        <time>2016-10-01T09:59:45Z</time>
      </trkpt>
      <trkpt lat="48.44016" lon="-4.29925">
        <ele>67.49</ele>
        <time>2016-10-01T09:59:49Z</time>
      </trkpt>
      <trkpt lat="48.44" lon="-4.29937">
        <ele>68.54</ele>
        <time>2016-10-01T09:59:53Z</time>
      </trkpt>
      <trkpt lat="48.43985" lon="-4.29952">
        <ele>68.18</ele>
        <time>2016-10-01T09:59:57Z</time>
      </trkpt>
      <trkpt lat="48.43974" lon="-4.29974">
        <ele>63.48</ele>
        <time>2016-10-01T10:00:02Z</time>
      </trkpt>
      <trkpt lat="48.43964" lon="-4.29998">
        <ele>67.69</ele>
        <time>2016-10-01T10:00:09Z</time>
      </trkpt>
      <trkpt lat="48.43952" lon="-4.3002">
        <ele>71.33</ele>
        <time>2016-10-01T10:00:15Z</time>
      </trkpt>
      <trkpt lat="48.43935" lon="-4.30033">
        <ele>73.57</ele>
        <time>2016-10-01T10:00:20Z</time>
      </trkpt>
      <trkpt lat="48.43921" lon="-4.30053">
        <ele>74.65</ele>
        <time>2016-10-01T10:00:26Z</time>
      </trkpt>
      <trkpt lat="48.43908" lon="-4.30072">
        <ele>76.58</ele>
        <time>2016-10-01T10:00:33Z</time>
      </trkpt>
      <trkpt lat="48.43902" lon="-4.30102">
        <ele>75.59</ele>
        <time>2016-10-01T10:00:39Z</time>
      </trkpt>
      <trkpt lat="48.4389" lon="-4.30127">
        <ele>75.33</ele>
        <time>2016-10-01T10:00:45Z</time>
      </trkpt>
      <trkpt lat="48.43881" lon="-4.30153">
        <ele>73.79</ele>
        <time>2016-10-01T10:00:50Z</time>
      </trkpt>
      <trkpt lat="48.43871" lon="-4.30178">
        <ele>73.58</ele>
        <time>2016-10-01T10:00:54Z</time>
      </trkpt>
      <trkpt lat="48.43867" lon="-4.30208">
        <ele>73.58</ele>
        <time>2016-10-01T10:00:58Z</time>
      </trkpt>
      <trkpt lat="48.43862" lon="-4.30235">
        <ele>77.29</ele>
        <time>2016-10-01T10:01:02Z</time>
      </trkpt>
      <trkpt lat="48.4386" lon="-4.30269">
        <ele>79.34</ele>
        <time>2016-10-01T10:01:07Z</time>
      </trkpt>
      <trkpt lat="48.43856" lon="-4.30298">
        <ele>77.75</ele>
        <time>2016-10-01T10:01:11Z</time>
      </trkpt>
      <trkpt lat="48.43853" lon="-4.30328">
        <ele>78.54</ele>
        <time>2016-10-01T10:01:15Z</time>
      </trkpt>
      <trkpt lat="48.43847" lon="-4.30359">
        <ele>79.57</ele>
        <time>2016-10-01T10:01:19Z</time>
      </trkpt>
      <trkpt lat="48.43842" lon="-4.30395">
        <ele>79.55</ele>
        <time>2016-10-01T10:01:23Z</time>
      </trkpt>
      <trkpt lat="48.43838" lon="-4.30426">
        <ele>79.58</ele>
        <time>2016-10-01T10:01:27Z</time>
      </trkpt>
      <trkpt lat="48.43834" lon="-4.30455">
        <ele>83.1</ele>
        <time>2016-10-01T10:01:31Z</time>
      </trkpt>
      <trkpt lat="48.43828" lon="-4.30488">
        <ele>86.37</ele>
        <time>2016-10-01T10:01:36Z</time>
      </trkpt>
      <trkpt lat="48.43825" lon="-4.30528">
        <ele>86.54</ele>
        <time>2016-10-01T10:01:40Z</time>
      </trkpt>
      <trkpt lat="48.43826" lon="-4.30563">
        <ele>83.82</ele>
        <time>2016-10-01T10:01:44Z</time>
      </trkpt>
      <trkpt lat="48.43831" lon="-4.30594">
        <ele>78.03</ele>
        <time>2016-10-01T10:01:48Z</time>
      </trkpt>
      <trkpt lat="48.43837" lon="-4.30626">
        <ele>77.61</ele>
        <time>2016-10-01T10:01:52Z</time>
      </trkpt>
      <trkpt lat="48.43845" lon="-4.30659">
        <ele>76.78</ele>
        <time>2016-10-01T10:01:56Z</time>
      </trkpt>
      <trkpt lat="48.43848" lon="-4.30695">
        <ele>77.38</ele>
        <time>2016-10-01T10:02:00Z</time>
      </trkpt>
      <trkpt lat="48.43851" lon="-4.30727">
        <ele>78.57</ele>
        <time>2016-10-01T10:02:04Z</time>
      </trkpt>
      <trkpt lat="48.43834" lon="-4.3074">
        <ele>76.38</ele>
        <time>2016-10-01T10:02:13Z</time>
      </trkpt>
      <trkpt lat="48.43815" lon="-4.30727">
        <ele>77.76</ele>
        <time>2016-10-01T10:02:18Z</time>
      </trkpt>
      <trkpt lat="48.43801" lon="-4.3071">
        <ele>78.38</ele>
        <time>2016-10-01T10:02:22Z</time>
      </trkpt>
      <trkpt lat="48.43787" lon="-4.30687">
        <ele>77.55</ele>
        <time>2016-10-01T10:02:26Z</time>
      </trkpt>
      <trkpt lat="48.4377" lon="-4.30677">
        <ele>76.62</ele>
        <time>2016-10-01T10:02:29Z</time>
      </trkpt>
      <trkpt lat="48.4375" lon="-4.30659">
        <ele>77.57</ele>
        <time>2016-10-01T10:02:34Z</time>
      </trkpt>
      <trkpt lat="48.43731" lon="-4.30642">
        <ele>79.58</ele>
        <time>2016-10-01T10:02:39Z</time>
      </trkpt>
      <trkpt lat="48.43716" lon="-4.3062">
        <ele>83.56</ele>
        <time>2016-10-01T10:02:44Z</time>
      </trkpt>
      <trkpt lat="48.437" lon="-4.30599">
        <ele>83.62</ele>
        <time>2016-10-01T10:02:49Z</time>
      </trkpt>
      <trkpt lat="48.43685" lon="-4.30578">
        <ele>79.76</ele>
        <time>2016-10-01T10:02:53Z</time>
      </trkpt>
      <trkpt lat="48.43672" lon="-4.30556">
        <ele>82.33</ele>
        <time>2016-10-01T10:02:56Z</time>
      </trkpt>
      <trkpt lat="48.43658" lon="-4.30536">
        <ele>83.41</ele>
        <time>2016-10-01T10:02:59Z</time>
      </trkpt>
      <trkpt lat="48.43642" lon="-4.30525">
        <ele>83.77</ele>
        <time>2016-10-01T10:03:02Z</time>
      </trkpt>
      <trkpt lat="48.43623" lon="-4.3051">
        <ele>84.38</ele>
        <time>2016-10-01T10:03:05Z</time>
      </trkpt>
      <trkpt lat="48.43607" lon="-4.30495">
        <ele>80.55</ele>
        <time>2016-10-01T10:03:09Z</time>
      </trkpt>
      <trkpt lat="48.43592" lon="-4.30477">
        <ele>79.74</ele>
        <time>2016-10-01T10:03:12Z</time>
      </trkpt>
      <trkpt lat="48.43574" lon="-4.30458">
        <ele>81.37</ele>
        <time>2016-10-01T10:03:15Z</time>
      </trkpt>
      <trkpt lat="48.43575" lon="-4.3049">
        <ele>75.78</ele>
        <time>2016-10-01T10:03:27Z</time>
      </trkpt>
      <trkpt lat="48.43574" lon="-4.3052">
        <ele>74.53</ele>
        <time>2016-10-01T10:03:33Z</time>
      </trkpt>
      <trkpt lat="48.43574" lon="-4.3055">
        <ele>71.98</ele>
        <time>2016-10-01T10:03:40Z</time>
      </trkpt>
      <trkpt lat="48.43571" lon="-4.30578">
        <ele>72.58</ele>
        <time>2016-10-01T10:03:44Z</time>
      </trkpt>
      <trkpt lat="48.43572" lon="-4.30607">
        <ele>75.33</ele>
        <time>2016-10-01T10:03:50Z</time>
      </trkpt>
      <trkpt lat="48.43567" lon="-4.30636">
        <ele>76.58</ele>
        <time>2016-10-01T10:03:56Z</time>
      </trkpt>
      <trkpt lat="48.43561" lon="-4.30665">
        <ele>78.53</ele>
        <time>2016-10-01T10:04:01Z</time>
      </trkpt>
      <trkpt lat="48.43562" lon="-4.30698">
        <ele>76.58</ele>
        <time>2016-10-01T10:04:07Z</time>
      </trkpt>
      <trkpt lat="48.4356" lon="-4.30725">
        <ele>79.5</ele>
        <time>2016-10-01T10:04:14Z</time>
      </trkpt>
      <trkpt lat="48.43549" lon="-4.3075">
        <ele>77.97</ele>
        <time>2016-10-01T10:04:24Z</time>
      </trkpt>
      <trkpt lat="48.43541" lon="-4.30775">
        <ele>79.37</ele>
        <time>2016-10-01T10:04:31Z</time>
      </trkpt>
      <trkpt lat="48.43529" lon="-4.30804">
        <ele>79.38</ele>
        <time>2016-10-01T10:04:36Z</time>
      </trkpt>
      <trkpt lat="48.43517" lon="-4.30826">
        <ele>79.74</ele>
        <time>2016-10-01T10:04:40Z</time>
      </trkpt>
      <trkpt lat="48.43507" lon="-4.30851">
        <ele>77.59</ele>
        <time>2016-10-01T10:04:44Z</time>
      </trkpt>
      <trkpt lat="48.43492" lon="-4.30878">
        <ele>77.61</ele>
        <time>2016-10-01T10:04:49Z</time>
      </trkpt>
      <trkpt lat="48.43478" lon="-4.30898">
        <ele>79.18</ele>
        <time>2016-10-01T10:04:52Z</time>
      </trkpt>
      <trkpt lat="48.43462" lon="-4.30916">
        <ele>76.59</ele>
        <time>2016-10-01T10:04:56Z</time>
      </trkpt>
      <trkpt lat="48.43449" lon="-4.3094">
        <ele>75.65</ele>
        <time>2016-10-01T10:04:59Z</time>
      </trkpt>
      <trkpt lat="48.43435" lon="-4.30963">
        <ele>73.62</ele>
        <time>2016-10-01T10:05:02Z</time>
      </trkpt>
      <trkpt lat="48.43435" lon="-4.30992">
        <ele>72.78</ele>
        <time>2016-10-01T10:05:06Z</time>
      </trkpt>
      <trkpt lat="48.43442" lon="-4.3102">
        <ele>68.46</ele>
        <time>2016-10-01T10:05:12Z</time>
      </trkpt>
      <trkpt lat="48.43453" lon="-4.31046">
        <ele>66.58</ele>
        <time>2016-10-01T10:05:17Z</time>
      </trkpt>
      <trkpt lat="48.43461" lon="-4.31077">
        <ele>61.79</ele>
        <time>2016-10-01T10:05:27Z</time>
      </trkpt>
      <trkpt lat="48.43471" lon="-4.311">
        <ele>59.62</ele>
        <time>2016-10-01T10:05:31Z</time>
      </trkpt>
      <trkpt lat="48.43487" lon="-4.31123">
        <ele>56.63</ele>
        <time>2016-10-01T10:05:35Z</time>
      </trkpt>
      <trkpt lat="48.43503" lon="-4.3115">
        <ele>56.41</ele>
        <time>2016-10-01T10:05:39Z</time>
      </trkpt>
      <trkpt lat="48.4352" lon="-4.31167">
        <ele>56.58</ele>
        <time>2016-10-01T10:05:43Z</time>
      </trkpt>
      <trkpt lat="48.4352" lon="-4.31196">
        <ele>53.82</ele>
        <time>2016-10-01T10:05:50Z</time>
      </trkpt>
      <trkpt lat="48.43528" lon="-4.31221">
        <ele>54.58</ele>
        <time>2016-10-01T10:05:55Z</time>
      </trkpt>
      <trkpt lat="48.43535" lon="-4.31253">
        <ele>55.42</ele>
        <time>2016-10-01T10:06:00Z</time>
      </trkpt>
      <trkpt lat="48.43542" lon="-4.31282">
        <ele>59.53</ele>
        <time>2016-10-01T10:06:05Z</time>
      </trkpt>
      <trkpt lat="48.43545" lon="-4.31315">
        <ele>65.14</ele>
        <time>2016-10-01T10:06:10Z</time>
      </trkpt>
      <trkpt lat="48.43553" lon="-4.31342">
        <ele>63.39</ele>
        <time>2016-10-01T10:06:15Z</time>
      </trkpt>
      <trkpt lat="48.43557" lon="-4.31369">
        <ele>65.57</ele>
        <time>2016-10-01T10:06:20Z</time>
      </trkpt>
      <trkpt lat="48.43572" lon="-4.3139">
        <ele>67.53</ele>
        <time>2016-10-01T10:06:26Z</time>
      </trkpt>
      <trkpt lat="48.43593" lon="-4.31393">
        <ele>68.57</ele>
        <time>2016-10-01T10:06:31Z</time>
      </trkpt>
      <trkpt lat="48.43612" lon="-4.31394">
        <ele>68.77</ele>
        <time>2016-10-01T10:06:35Z</time>
      </trkpt>
      <trkpt lat="48.43631" lon="-4.31394">
        <ele>68.58</ele>
        <time>2016-10-01T10:06:39Z</time>
      </trkpt>
      <trkpt lat="48.43651" lon="-4.31397">
        <ele>69.57</ele>
        <time>2016-10-01T10:06:43Z</time>
      </trkpt>
      <trkpt lat="48.43669" lon="-4.31399">
        <ele>71.37</ele>
        <time>2016-10-01T10:06:47Z</time>
      </trkpt>
      <trkpt lat="48.43688" lon="-4.31402">
        <ele>71.38</ele>
        <time>2016-10-01T10:06:51Z</time>
      </trkpt>
      <trkpt lat="48.43709" lon="-4.31409">
        <ele>73.53</ele>
        <time>2016-10-01T10:06:56Z</time>
      </trkpt>
      <trkpt lat="48.43732" lon="-4.31413">
        <ele>75.54</ele>
        <time>2016-10-01T10:07:02Z</time>
      </trkpt>
      <trkpt lat="48.43753" lon="-4.31418">
        <ele>72.78</ele>
        <time>2016-10-01T10:07:07Z</time>
      </trkpt>
      <trkpt lat="48.43772" lon="-4.31427">
        <ele>75.17</ele>
        <time>2016-10-01T10:07:11Z</time>
      </trkpt>
      <trkpt lat="48.43794" lon="-4.31435">
        <ele>75.54</ele>
        <time>2016-10-01T10:07:17Z</time>
      </trkpt>
      <trkpt lat="48.43815" lon="-4.31441">
        <ele>77.53</ele>
        <time>2016-10-01T10:07:22Z</time>
      </trkpt>
      <trkpt lat="48.43835" lon="-4.31453">
        <ele>78.74</ele>
        <time>2016-10-01T10:07:27Z</time>
      </trkpt>
      <trkpt lat="48.43855" lon="-4.31457">
        <ele>80.61</ele>
        <time>2016-10-01T10:07:33Z</time>
      </trkpt>
      <trkpt lat="48.43867" lon="-4.31482">
        <ele>81.77</ele>
        <time>2016-10-01T10:07:39Z</time>
      </trkpt>
      <trkpt lat="48.43868" lon="-4.31511">
        <ele>80.54</ele>
        <time>2016-10-01T10:07:44Z</time>
      </trkpt>
      <trkpt lat="48.43869" lon="-4.3154">
        <ele>82.37</ele>
        <time>2016-10-01T10:07:48Z</time>
      </trkpt>
      <trkpt lat="48.43871" lon="-4.31568">
        <ele>80.77</ele>
        <time>2016-10-01T10:07:52Z</time>
      </trkpt>
      <trkpt lat="48.43869" lon="-4.31599">
        <ele>79.94</ele>
        <time>2016-10-01T10:07:56Z</time>
      </trkpt>
      <trkpt lat="48.43869" lon="-4.31626">
        <ele>78.58</ele>
        <time>2016-10-01T10:08:00Z</time>
      </trkpt>
      <trkpt lat="48.43868" lon="-4.31657">
        <ele>78.58</ele>
        <time>2016-10-01T10:08:04Z</time>
      </trkpt>
      <trkpt lat="48.43863" lon="-4.31692">
        <ele>80.57</ele>
        <time>2016-10-01T10:08:08Z</time>
      </trkpt>
      <trkpt lat="48.43859" lon="-4.31727">
        <ele>79.62</ele>
        <time>2016-10-01T10:08:12Z</time>
      </trkpt>
      <trkpt lat="48.43855" lon="-4.31759">
        <ele>82.33</ele>
        <time>2016-10-01T10:08:15Z</time>
      </trkpt>
      <trkpt lat="48.43851" lon="-4.31791">
        <ele>82.57</ele>
        <time>2016-10-01T10:08:18Z</time>
      </trkpt>
      <trkpt lat="48.43846" lon="-4.31825">
        <ele>80.66</ele>
        <time>2016-10-01T10:08:21Z</time>
      </trkpt>
      <trkpt lat="48.43841" lon="-4.31861">
        <ele>79.78</ele>
        <time>2016-10-01T10:08:24Z</time>
      </trkpt>
      <trkpt lat="48.43836" lon="-4.31897">
        <ele>79.58</ele>
        <time>2016-10-01T10:08:27Z</time>
      </trkpt>
      <trkpt lat="48.43831" lon="-4.31929">
        <ele>80.57</ele>
        <time>2016-10-01T10:08:30Z</time>
      </trkpt>
      <trkpt lat="48.43823" lon="-4.31961">
        <ele>80.58</ele>
        <time>2016-10-01T10:08:34Z</time>
      </trkpt>
      <trkpt lat="48.43819" lon="-4.31989">
        <ele>81.57</ele>
        <time>2016-10-01T10:08:38Z</time>
      </trkpt>
      <trkpt lat="48.43812" lon="-4.32017">
        <ele>82.77</ele>
        <time>2016-10-01T10:08:42Z</time>
      </trkpt>
      <trkpt lat="48.43803" lon="-4.32042">
        <ele>82.54</ele>
        <time>2016-10-01T10:08:46Z</time>
      </trkpt>
      <trkpt lat="48.43792" lon="-4.32067">
        <ele>84.54</ele>
        <time>2016-10-01T10:08:51Z</time>
      </trkpt>
      <trkpt lat="48.43782" lon="-4.32091">
        <ele>87.53</ele>
        <time>2016-10-01T10:08:57Z</time>
      </trkpt>
      <trkpt lat="48.43772" lon="-4.32115">
        <ele>88.61</ele>
        <time>2016-10-01T10:09:03Z</time>
      </trkpt>
      <trkpt lat="48.43763" lon="-4.3214">
        <ele>90.73</ele>
        <time>2016-10-01T10:09:09Z</time>
      </trkpt>
      <trkpt lat="48.43769" lon="-4.32168">
        <ele>91.38</ele>
        <time>2016-10-01T10:09:17Z</time>
      </trkpt>
      <trkpt lat="48.43785" lon="-4.3218">
        <ele>94.37</ele>
        <time>2016-10-01T10:09:24Z</time>
      </trkpt>
      <trkpt lat="48.43802" lon="-4.32191">
        <ele>99.37</ele>
        <time>2016-10-01T10:09:30Z</time>
      </trkpt>
      <trkpt lat="48.43819" lon="-4.32207">
        <ele>101.54</ele>
        <time>2016-10-01T10:09:38Z</time>
      </trkpt>
      <trkpt lat="48.43835" lon="-4.32223">
        <ele>104.53</ele>
        <time>2016-10-01T10:09:45Z</time>
      </trkpt>
      <trkpt lat="48.43852" lon="-4.32238">
        <ele>105.57</ele>
        <time>2016-10-01T10:09:52Z</time>
      </trkpt>
      <trkpt lat="48.43873" lon="-4.32243">
        <ele>106.57</ele>
        <time>2016-10-01T10:09:59Z</time>
      </trkpt>
      <trkpt lat="48.43891" lon="-4.32235">
        <ele>106.58</ele>
        <time>2016-10-01T10:10:03Z</time>
      </trkpt>
      <trkpt lat="48.43908" lon="-4.32249">
        <ele>107.38</ele>
        <time>2016-10-01T10:10:07Z</time>
      </trkpt>
      <trkpt lat="48.43921" lon="-4.32269">
        <ele>107.58</ele>
        <time>2016-10-01T10:10:11Z</time>
      </trkpt>
      <trkpt lat="48.43938" lon="-4.32286">
        <ele>107.38</ele>
        <time>2016-10-01T10:10:15Z</time>
      </trkpt>
      <trkpt lat="48.43957" lon="-4.323">
        <ele>104.85</ele>
        <time>2016-10-01T10:10:19Z</time>
      </trkpt>
      <trkpt lat="48.43975" lon="-4.32315">
        <ele>105.54</ele>
        <time>2016-10-01T10:10:23Z</time>
      </trkpt>
      <trkpt lat="48.43992" lon="-4.32328">
        <ele>106.54</ele>
        <time>2016-10-01T10:10:27Z</time>
      </trkpt>
      <trkpt lat="48.44008" lon="-4.32343">
        <ele>107.54</ele>
        <time>2016-10-01T10:10:31Z</time>
      </trkpt>
      <trkpt lat="48.44026" lon="-4.32356">
        <ele>109.53</ele>
        <time>2016-10-01T10:10:35Z</time>
      </trkpt>
      <trkpt lat="48.44044" lon="-4.32369">
        <ele>109.58</ele>
        <time>2016-10-01T10:10:39Z</time>
      </trkpt>
      <trkpt lat="48.4406" lon="-4.32385">
        <ele>107.62</ele>
        <time>2016-10-01T10:10:43Z</time>
      </trkpt>
      <trkpt lat="48.44081" lon="-4.32398">
        <ele>105.94</ele>
        <time>2016-10-01T10:10:47Z</time>
      </trkpt>
      <trkpt lat="48.44098" lon="-4.3241">
        <ele>108.3</ele>
        <time>2016-10-01T10:10:50Z</time>
      </trkpt>
      <trkpt lat="48.44121" lon="-4.32425">
        <ele>105.98</ele>
        <time>2016-10-01T10:10:53Z</time>
      </trkpt>
      <trkpt lat="48.44138" lon="-4.32435">
        <ele>103.83</ele>
        <time>2016-10-01T10:10:55Z</time>
      </trkpt>
      <trkpt lat="48.44156" lon="-4.32445">
        <ele>101.03</ele>
        <time>2016-10-01T10:10:57Z</time>
      </trkpt>
      <trkpt lat="48.44173" lon="-4.32457">
        <ele>99.63</ele>
        <time>2016-10-01T10:10:59Z</time>
      </trkpt>
      <trkpt lat="48.44191" lon="-4.32465">
        <ele>98.78</ele>
        <time>2016-10-01T10:11:01Z</time>
      </trkpt>
      <trkpt lat="48.44216" lon="-4.32476">
        <ele>97.59</ele>
        <time>2016-10-01T10:11:04Z</time>
      </trkpt>
      <trkpt lat="48.4424" lon="-4.32485">
        <ele>97.58</ele>
        <time>2016-10-01T10:11:07Z</time>
      </trkpt>
      <trkpt lat="48.4426" lon="-4.32493">
        <ele>96.62</ele>
        <time>2016-10-01T10:11:10Z</time>
      </trkpt>
      <trkpt lat="48.44277" lon="-4.32507">
        <ele>97.38</ele>
        <time>2016-10-01T10:11:15Z</time>
      </trkpt>
      <trkpt lat="48.44271" lon="-4.32533">
        <ele>97.58</ele>
        <time>2016-10-01T10:11:19Z</time>
      </trkpt>
      <trkpt lat="48.44263" lon="-4.32564">
        <ele>96.78</ele>
        <time>2016-10-01T10:11:23Z</time>
      </trkpt>
      <trkpt lat="48.44252" lon="-4.32594">
        <ele>97.57</ele>
        <time>2016-10-01T10:11:27Z</time>
      </trkpt>
      <trkpt lat="48.44241" lon="-4.32625">
        <ele>98.38</ele>
        <time>2016-10-01T10:11:31Z</time>
      </trkpt>
      <trkpt lat="48.44231" lon="-4.32656">
        <ele>98.58</ele>
        <time>2016-10-01T10:11:35Z</time>
      </trkpt>
      <trkpt lat="48.44222" lon="-4.32681">
        <ele>97.62</ele>
        <time>2016-10-01T10:11:38Z</time>
      </trkpt>
      <trkpt lat="48.44214" lon="-4.32707">
        <ele>97.54</ele>
        <time>2016-10-01T10:11:41Z</time>
      </trkpt>
      <trkpt lat="48.44206" lon="-4.32733">
        <ele>96.82</ele>
        <time>2016-10-01T10:11:51Z</time>
      </trkpt>
      <trkpt lat="48.44198" lon="-4.32758">
        <ele>96.58</ele>
        <time>2016-10-01T10:11:54Z</time>
      </trkpt>
      <trkpt lat="48.44189" lon="-4.32783">
        <ele>96.58</ele>
        <time>2016-10-01T10:11:57Z</time>
      </trkpt>
      <trkpt lat="48.44178" lon="-4.32809">
        <ele>94.62</ele>
        <time>2016-10-01T10:12:00Z</time>
      </trkpt>
      <trkpt lat="48.44169" lon="-4.3284">
        <ele>93.62</ele>
        <time>2016-10-01T10:12:03Z</time>
      </trkpt>
      <trkpt lat="48.44163" lon="-4.32872">
        <ele>92.62</ele>
        <time>2016-10-01T10:12:06Z</time>
      </trkpt>
      <trkpt lat="48.44163" lon="-4.32909">
        <ele>92.42</ele>
        <time>2016-10-01T10:12:09Z</time>
      </trkpt>
      <trkpt lat="48.44161" lon="-4.32943">
        <ele>93.37</ele>
        <time>2016-10-01T10:12:12Z</time>
      </trkpt>
      <trkpt lat="48.44157" lon="-4.32979">
        <ele>92.58</ele>
        <time>2016-10-01T10:12:15Z</time>
      </trkpt>
      <trkpt lat="48.44154" lon="-4.33015">
        <ele>91.62</ele>
        <time>2016-10-01T10:12:18Z</time>
      </trkpt>
      <trkpt lat="48.4415" lon="-4.3305">
        <ele>91.58</ele>
        <time>2016-10-01T10:12:21Z</time>
      </trkpt>
      <trkpt lat="48.44139" lon="-4.33082">
        <ele>89.62</ele>
        <time>2016-10-01T10:12:24Z</time>
      </trkpt>
      <trkpt lat="48.44123" lon="-4.33111">
        <ele>89.58</ele>
        <time>2016-10-01T10:12:27Z</time>
      </trkpt>
      <trkpt lat="48.44103" lon="-4.33135">
        <ele>90.38</ele>
        <time>2016-10-01T10:12:30Z</time>
      </trkpt>
      <trkpt lat="48.44084" lon="-4.3316">
        <ele>89.61</ele>
        <time>2016-10-01T10:12:33Z</time>
      </trkpt>
      <trkpt lat="48.44065" lon="-4.33186">
        <ele>89.42</ele>
        <time>2016-10-01T10:12:36Z</time>
      </trkpt>
      <trkpt lat="48.4405" lon="-4.33202">
        <ele>89.73</ele>
        <time>2016-10-01T10:12:38Z</time>
      </trkpt>
      <trkpt lat="48.44039" lon="-4.33226">
        <ele>90.54</ele>
        <time>2016-10-01T10:12:40Z</time>
      </trkpt>
      <trkpt lat="48.44023" lon="-4.33242">
        <ele>89.61</ele>
        <time>2016-10-01T10:12:42Z</time>
      </trkpt>
      <trkpt lat="48.44002" lon="-4.33268">
        <ele>89.58</ele>
        <time>2016-10-01T10:12:45Z</time>
      </trkpt>
      <trkpt lat="48.43988" lon="-4.33287">
        <ele>89.74</ele>
        <time>2016-10-01T10:12:47Z</time>
      </trkpt>
      <trkpt lat="48.43974" lon="-4.33306">
        <ele>89.58</ele>
        <time>2016-10-01T10:12:49Z</time>
      </trkpt>
      <trkpt lat="48.43956" lon="-4.33336">
        <ele>89.58</ele>
        <time>2016-10-01T10:12:52Z</time>
      </trkpt>
      <trkpt lat="48.43943" lon="-4.33368">
        <ele>89.22</ele>
        <time>2016-10-01T10:12:55Z</time>
      </trkpt>
      <trkpt lat="48.43932" lon="-4.33393">
        <ele>88.76</ele>
        <time>2016-10-01T10:12:57Z</time>
      </trkpt>
      <trkpt lat="48.43921" lon="-4.33415">
        <ele>86.66</ele>
        <time>2016-10-01T10:12:59Z</time>
      </trkpt>
      <trkpt lat="48.4391" lon="-4.33438">
        <ele>85.78</ele>
        <time>2016-10-01T10:13:01Z</time>
      </trkpt>
      <trkpt lat="48.43902" lon="-4.33462">
        <ele>83.82</ele>
        <time>2016-10-01T10:13:03Z</time>
      </trkpt>
      <trkpt lat="48.43892" lon="-4.33487">
        <ele>83.59</ele>
        <time>2016-10-01T10:13:05Z</time>
      </trkpt>
      <trkpt lat="48.43882" lon="-4.3351">
        <ele>82.62</ele>
        <time>2016-10-01T10:13:07Z</time>
      </trkpt>
      <trkpt lat="48.43869" lon="-4.33542">
        <ele>82.58</ele>
        <time>2016-10-01T10:13:10Z</time>
      </trkpt>
      <trkpt lat="48.4386" lon="-4.33566">
        <ele>82.58</ele>
        <time>2016-10-01T10:13:12Z</time>
      </trkpt>
      <trkpt lat="48.4385" lon="-4.3359">
        <ele>82.58</ele>
        <time>2016-10-01T10:13:14Z</time>
      </trkpt>
      <trkpt lat="48.43841" lon="-4.33615">
        <ele>81.78</ele>
        <time>2016-10-01T10:13:16Z</time>
      </trkpt>
      <trkpt lat="48.43829" lon="-4.33651">
        <ele>80.59</ele>
        <time>2016-10-01T10:13:19Z</time>
      </trkpt>
      <trkpt lat="48.43821" lon="-4.33677">
        <ele>79.78</ele>
        <time>2016-10-01T10:13:21Z</time>
      </trkpt>
      <trkpt lat="48.43808" lon="-4.33711">
        <ele>79.58</ele>
        <time>2016-10-01T10:13:24Z</time>
      </trkpt>
      <trkpt lat="48.43792" lon="-4.33739">
        <ele>80.54</ele>
        <time>2016-10-01T10:13:27Z</time>
      </trkpt>
      <trkpt lat="48.43774" lon="-4.33767">
        <ele>78.78</ele>
        <time>2016-10-01T10:13:30Z</time>
      </trkpt>
      <trkpt lat="48.43755" lon="-4.33793">
        <ele>76.63</ele>
        <time>2016-10-01T10:13:33Z</time>
      </trkpt>
      <trkpt lat="48.43734" lon="-4.33815">
        <ele>75.58</ele>
        <time>2016-10-01T10:13:36Z</time>
      </trkpt>
      <trkpt lat="48.43711" lon="-4.33833">
        <ele>74.62</ele>
        <time>2016-10-01T10:13:39Z</time>
      </trkpt>
      <trkpt lat="48.43687" lon="-4.33848">
        <ele>73.78</ele>
        <time>2016-10-01T10:13:42Z</time>
      </trkpt>
      <trkpt lat="48.43663" lon="-4.33864">
        <ele>72.59</ele>
        <time>2016-10-01T10:13:45Z</time>
      </trkpt>
      <trkpt lat="48.4364" lon="-4.33883">
        <ele>70.62</ele>
        <time>2016-10-01T10:13:48Z</time>
      </trkpt>
      <trkpt lat="48.43624" lon="-4.33896">
        <ele>68.82</ele>
        <time>2016-10-01T10:13:50Z</time>
      </trkpt>
      <trkpt lat="48.43601" lon="-4.33916">
        <ele>67.78</ele>
        <time>2016-10-01T10:13:53Z</time>
      </trkpt>
      <trkpt lat="48.43579" lon="-4.33937">
        <ele>66.78</ele>
        <time>2016-10-01T10:13:56Z</time>
      </trkpt>
      <trkpt lat="48.43558" lon="-4.33957">
        <ele>66.58</ele>
        <time>2016-10-01T10:13:59Z</time>
      </trkpt>
      <trkpt lat="48.4354" lon="-4.33981">
        <ele>64.78</ele>
        <time>2016-10-01T10:14:02Z</time>
      </trkpt>
      <trkpt lat="48.43529" lon="-4.34013">
        <ele>65.54</ele>
        <time>2016-10-01T10:14:05Z</time>
      </trkpt>
      <trkpt lat="48.43522" lon="-4.34047">
        <ele>64.62</ele>
        <time>2016-10-01T10:14:08Z</time>
      </trkpt>
      <trkpt lat="48.43515" lon="-4.3408">
        <ele>63.58</ele>
        <time>2016-10-01T10:14:11Z</time>
      </trkpt>
      <trkpt lat="48.43508" lon="-4.34113">
        <ele>62.78</ele>
        <time>2016-10-01T10:14:14Z</time>
      </trkpt>
      <trkpt lat="48.43501" lon="-4.34147">
        <ele>62.58</ele>
        <time>2016-10-01T10:14:17Z</time>
      </trkpt>
      <trkpt lat="48.43494" lon="-4.34183">
        <ele>61.62</ele>
        <time>2016-10-01T10:14:20Z</time>
      </trkpt>
      <trkpt lat="48.43488" lon="-4.34216">
        <ele>61.58</ele>
        <time>2016-10-01T10:14:23Z</time>
      </trkpt>
      <trkpt lat="48.43481" lon="-4.34249">
        <ele>61.58</ele>
        <time>2016-10-01T10:14:26Z</time>
      </trkpt>
      <trkpt lat="48.43475" lon="-4.34277">
        <ele>61.77</ele>
        <time>2016-10-01T10:14:29Z</time>
      </trkpt>
      <trkpt lat="48.43469" lon="-4.3431">
        <ele>60.62</ele>
        <time>2016-10-01T10:14:33Z</time>
      </trkpt>
      <trkpt lat="48.43463" lon="-4.34341">
        <ele>61.34</ele>
        <time>2016-10-01T10:14:37Z</time>
      </trkpt>
      <trkpt lat="48.43456" lon="-4.34373">
        <ele>64.53</ele>
        <time>2016-10-01T10:14:41Z</time>
      </trkpt>
      <trkpt lat="48.43458" lon="-4.34404">
        <ele>65.54</ele>
        <time>2016-10-01T10:14:45Z</time>
      </trkpt>
      <trkpt lat="48.43473" lon="-4.34422">
        <ele>68.65</ele>
        <time>2016-10-01T10:14:50Z</time>
      </trkpt>
      <trkpt lat="48.43486" lon="-4.34442">
        <ele>66.54</ele>
        <time>2016-10-01T10:14:56Z</time>
      </trkpt>
      <trkpt lat="48.43504" lon="-4.34462">
        <ele>68.54</ele>
        <time>2016-10-01T10:15:02Z</time>
      </trkpt>
      <trkpt lat="48.43515" lon="-4.34487">
        <ele>74.29</ele>
        <time>2016-10-01T10:15:09Z</time>
      </trkpt>
      <trkpt lat="48.43526" lon="-4.34511">
        <ele>72.42</ele>
        <time>2016-10-01T10:15:15Z</time>
      </trkpt>
      <trkpt lat="48.43534" lon="-4.34539">
        <ele>74.38</ele>
        <time>2016-10-01T10:15:21Z</time>
      </trkpt>
      <trkpt lat="48.43542" lon="-4.34564">
        <ele>75.61</ele>
        <time>2016-10-01T10:15:27Z</time>
      </trkpt>
      <trkpt lat="48.4355" lon="-4.34592">
        <ele>76.18</ele>
        <time>2016-10-01T10:15:33Z</time>
      </trkpt>
      <trkpt lat="48.4356" lon="-4.34616">
        <ele>76.61</ele>
        <time>2016-10-01T10:15:39Z</time>
      </trkpt>
      <trkpt lat="48.43569" lon="-4.34644">
        <ele>79.37</ele>
        <time>2016-10-01T10:15:45Z</time>
      </trkpt>
      <trkpt lat="48.43573" lon="-4.34673">
        <ele>82.57</ele>
        <time>2016-10-01T10:15:51Z</time>
      </trkpt>
      <trkpt lat="48.43577" lon="-4.34704">
        <ele>81.58</ele>
        <time>2016-10-01T10:15:57Z</time>
      </trkpt>
      <trkpt lat="48.43579" lon="-4.34731">
        <ele>82.73</ele>
        <time>2016-10-01T10:16:02Z</time>
      </trkpt>
      <trkpt lat="48.43582" lon="-4.34762">
        <ele>82.54</ele>
        <time>2016-10-01T10:16:07Z</time>
      </trkpt>
      <trkpt lat="48.43586" lon="-4.3479">
        <ele>82.77</ele>
        <time>2016-10-01T10:16:12Z</time>
      </trkpt>
      <trkpt lat="48.43589" lon="-4.34817">
        <ele>84.54</ele>
        <time>2016-10-01T10:16:17Z</time>
      </trkpt>
      <trkpt lat="48.43592" lon="-4.34846">
        <ele>82.58</ele>
        <time>2016-10-01T10:16:22Z</time>
      </trkpt>
      <trkpt lat="48.43592" lon="-4.34878">
        <ele>84.54</ele>
        <time>2016-10-01T10:16:27Z</time>
      </trkpt>
      <trkpt lat="48.43592" lon="-4.34906">
        <ele>85.57</ele>
        <time>2016-10-01T10:16:32Z</time>
      </trkpt>
      <trkpt lat="48.43591" lon="-4.34936">
        <ele>86.58</ele>
        <time>2016-10-01T10:16:37Z</time>
      </trkpt>
      <trkpt lat="48.43588" lon="-4.34964">
        <ele>86.58</ele>
        <time>2016-10-01T10:16:42Z</time>
      </trkpt>
      <trkpt lat="48.43584" lon="-4.34993">
        <ele>86.58</ele>
        <time>2016-10-01T10:16:47Z</time>
      </trkpt>
      <trkpt lat="48.43579" lon="-4.35023">
        <ele>87.38</ele>
        <time>2016-10-01T10:16:53Z</time>
      </trkpt>
      <trkpt lat="48.43573" lon="-4.35052">
        <ele>87.58</ele>
        <time>2016-10-01T10:16:59Z</time>
      </trkpt>
      <trkpt lat="48.43569" lon="-4.35082">
        <ele>88.54</ele>
        <time>2016-10-01T10:17:05Z</time>
      </trkpt>
      <trkpt lat="48.43565" lon="-4.35113">
        <ele>90.37</ele>
        <time>2016-10-01T10:17:11Z</time>
      </trkpt>
      <trkpt lat="48.43561" lon="-4.3514">
        <ele>90.58</ele>
        <time>2016-10-01T10:17:16Z</time>
      </trkpt>
      <trkpt lat="48.43563" lon="-4.3517">
        <ele>89.58</ele>
        <time>2016-10-01T10:17:22Z</time>
      </trkpt>
      <trkpt lat="48.43581" lon="-4.35172">
        <ele>89.58</ele>
        <time>2016-10-01T10:17:27Z</time>
      </trkpt>
      <trkpt lat="48.43603" lon="-4.35171">
        <ele>89.58</ele>
        <time>2016-10-01T10:17:32Z</time>
      </trkpt>
      <trkpt lat="48.43624" lon="-4.35171">
        <ele>88.58</ele>
        <time>2016-10-01T10:17:36Z</time>
      </trkpt>
      <trkpt lat="48.43647" lon="-4.35171">
        <ele>87.78</ele>
        <time>2016-10-01T10:17:40Z</time>
      </trkpt>
      <trkpt lat="48.4367" lon="-4.35172">
        <ele>88.38</ele>
        <time>2016-10-01T10:17:44Z</time>
      </trkpt>
      <trkpt lat="48.43688" lon="-4.35175">
        <ele>87.58</ele>
        <time>2016-10-01T10:17:47Z</time>
      </trkpt>
      <trkpt lat="48.43706" lon="-4.35182">
        <ele>87.58</ele>
        <time>2016-10-01T10:17:50Z</time>
      </trkpt>
      <trkpt lat="48.43728" lon="-4.35192">
        <ele>89.53</ele>
        <time>2016-10-01T10:17:54Z</time>
      </trkpt>
      <trkpt lat="48.43747" lon="-4.3521">
        <ele>89.57</ele>
        <time>2016-10-01T10:17:58Z</time>
      </trkpt>
      <trkpt lat="48.43766" lon="-4.35232">
        <ele>90.57</ele>
        <time>2016-10-01T10:18:02Z</time>
      </trkpt>
      <trkpt lat="48.43782" lon="-4.35256">
        <ele>90.58</ele>
        <time>2016-10-01T10:18:06Z</time>
      </trkpt>
      <trkpt lat="48.43798" lon="-4.35281">
        <ele>92.37</ele>
        <time>2016-10-01T10:18:10Z</time>
      </trkpt>
      <trkpt lat="48.43813" lon="-4.35305">
        <ele>92.58</ele>
        <time>2016-10-01T10:18:14Z</time>
      </trkpt>
      <trkpt lat="48.43829" lon="-4.35332">
        <ele>92.58</ele>
        <time>2016-10-01T10:18:18Z</time>
      </trkpt>
      <trkpt lat="48.43847" lon="-4.35352">
        <ele>92.58</ele>
        <time>2016-10-01T10:18:22Z</time>
      </trkpt>
      <trkpt lat="48.43868" lon="-4.35369">
        <ele>92.58</ele>
        <time>2016-10-01T10:18:26Z</time>
      </trkpt>
      <trkpt lat="48.4389" lon="-4.35382">
        <ele>91.58</ele>
        <time>2016-10-01T10:18:30Z</time>
      </trkpt>
      <trkpt lat="48.43908" lon="-4.35388">
        <ele>92.54</ele>
        <time>2016-10-01T10:18:33Z</time>
      </trkpt>
      <trkpt lat="48.43927" lon="-4.3539">
        <ele>94.53</ele>
        <time>2016-10-01T10:18:36Z</time>
      </trkpt>
      <trkpt lat="48.43946" lon="-4.3539">
        <ele>94.58</ele>
        <time>2016-10-01T10:18:39Z</time>
      </trkpt>
      <trkpt lat="48.43966" lon="-4.35384">
        <ele>92.78</ele>
        <time>2016-10-01T10:18:42Z</time>
      </trkpt>
      <trkpt lat="48.43986" lon="-4.35374">
        <ele>92.61</ele>
        <time>2016-10-01T10:18:45Z</time>
      </trkpt>
      <trkpt lat="48.44007" lon="-4.35362">
        <ele>91.78</ele>
        <time>2016-10-01T10:18:48Z</time>
      </trkpt>
      <trkpt lat="48.44027" lon="-4.35349">
        <ele>92.38</ele>
        <time>2016-10-01T10:18:51Z</time>
      </trkpt>
      <trkpt lat="48.44047" lon="-4.35339">
        <ele>91.58</ele>
        <time>2016-10-01T10:18:54Z</time>
      </trkpt>
      <trkpt lat="48.44065" lon="-4.35329">
        <ele>91.58</ele>
        <time>2016-10-01T10:18:57Z</time>
      </trkpt>
      <trkpt lat="48.44083" lon="-4.35321">
        <ele>91.58</ele>
        <time>2016-10-01T10:19:00Z</time>
      </trkpt>
      <trkpt lat="48.44101" lon="-4.35314">
        <ele>91.38</ele>
        <time>2016-10-01T10:19:03Z</time>
      </trkpt>
      <trkpt lat="48.44121" lon="-4.35312">
        <ele>92.53</ele>
        <time>2016-10-01T10:19:06Z</time>
      </trkpt>
      <trkpt lat="48.4414" lon="-4.35313">
        <ele>91.58</ele>
        <time>2016-10-01T10:19:09Z</time>
      </trkpt>
      <trkpt lat="48.44158" lon="-4.35319">
        <ele>91.42</ele>
        <time>2016-10-01T10:19:12Z</time>
      </trkpt>
      <trkpt lat="48.44176" lon="-4.35331">
        <ele>90.74</ele>
        <time>2016-10-01T10:19:15Z</time>
      </trkpt>
      <trkpt lat="48.44198" lon="-4.35342">
        <ele>92.53</ele>
        <time>2016-10-01T10:19:19Z</time>
      </trkpt>
      <trkpt lat="48.44219" lon="-4.35352">
        <ele>91.58</ele>
        <time>2016-10-01T10:19:23Z</time>
      </trkpt>
      <trkpt lat="48.4424" lon="-4.3536">
        <ele>91.42</ele>
        <time>2016-10-01T10:19:27Z</time>
      </trkpt>
      <trkpt lat="48.44258" lon="-4.35368">
        <ele>90.58</ele>
        <time>2016-10-01T10:19:30Z</time>
      </trkpt>
      <trkpt lat="48.44277" lon="-4.35377">
        <ele>90.58</ele>
        <time>2016-10-01T10:19:33Z</time>
      </trkpt>
      <trkpt lat="48.44296" lon="-4.35387">
        <ele>90.58</ele>
        <time>2016-10-01T10:19:36Z</time>
      </trkpt>
      <trkpt lat="48.44315" lon="-4.35404">
        <ele>90.61</ele>
        <time>2016-10-01T10:19:40Z</time>
      </trkpt>
      <trkpt lat="48.44314" lon="-4.35434">
        <ele>90.58</ele>
        <time>2016-10-01T10:19:44Z</time>
      </trkpt>
      <trkpt lat="48.44308" lon="-4.35467">
        <ele>90.77</ele>
        <time>2016-10-01T10:19:48Z</time>
      </trkpt>
      <trkpt lat="48.44304" lon="-4.35494">
        <ele>89.43</ele>
        <time>2016-10-01T10:19:51Z</time>
      </trkpt>
      <trkpt lat="48.44303" lon="-4.35521">
        <ele>90.57</ele>
        <time>2016-10-01T10:19:54Z</time>
      </trkpt>
      <trkpt lat="48.44303" lon="-4.35556">
        <ele>91.42</ele>
        <time>2016-10-01T10:19:58Z</time>
      </trkpt>
      <trkpt lat="48.44299" lon="-4.35591">
        <ele>92.57</ele>
        <time>2016-10-01T10:20:02Z</time>
      </trkpt>
      <trkpt lat="48.44294" lon="-4.35623">
        <ele>92.77</ele>
        <time>2016-10-01T10:20:06Z</time>
      </trkpt>
      <trkpt lat="48.44286" lon="-4.35653">
        <ele>92.54</ele>
        <time>2016-10-01T10:20:10Z</time>
      </trkpt>
      <trkpt lat="48.44278" lon="-4.35685">
        <ele>92.58</ele>
        <time>2016-10-01T10:20:14Z</time>
      </trkpt>
      <trkpt lat="48.4427" lon="-4.3571">
        <ele>90.78</ele>
        <time>2016-10-01T10:20:17Z</time>
      </trkpt>
      <trkpt lat="48.4426" lon="-4.35742">
        <ele>91.54</ele>
        <time>2016-10-01T10:20:21Z</time>
      </trkpt>
      <trkpt lat="48.44251" lon="-4.35772">
        <ele>92.57</ele>
        <time>2016-10-01T10:20:25Z</time>
      </trkpt>
      <trkpt lat="48.44241" lon="-4.35799">
        <ele>92.58</ele>
        <time>2016-10-01T10:20:29Z</time>
      </trkpt>
      <trkpt lat="48.44234" lon="-4.35824">
        <ele>91.78</ele>
        <time>2016-10-01T10:20:33Z</time>
      </trkpt>
      <trkpt lat="48.44228" lon="-4.35854">
        <ele>91.41</ele>
        <time>2016-10-01T10:20:37Z</time>
      </trkpt>
      <trkpt lat="48.44226" lon="-4.35887">
        <ele>90.78</ele>
        <time>2016-10-01T10:20:41Z</time>
      </trkpt>
      <trkpt lat="48.44222" lon="-4.35923">
        <ele>90.54</ele>
        <time>2016-10-01T10:20:45Z</time>
      </trkpt>
      <trkpt lat="48.44211" lon="-4.35954">
        <ele>87.59</ele>
        <time>2016-10-01T10:20:49Z</time>
      </trkpt>
      <trkpt lat="48.44197" lon="-4.35972">
        <ele>85.82</ele>
        <time>2016-10-01T10:20:52Z</time>
      </trkpt>
      <trkpt lat="48.44182" lon="-4.3599">
        <ele>84.43</ele>
        <time>2016-10-01T10:20:55Z</time>
      </trkpt>
      <trkpt lat="48.44167" lon="-4.3601">
        <ele>84.57</ele>
        <time>2016-10-01T10:20:58Z</time>
      </trkpt>
      <trkpt lat="48.44152" lon="-4.36035">
        <ele>82.62</ele>
        <time>2016-10-01T10:21:01Z</time>
      </trkpt>
      <trkpt lat="48.44142" lon="-4.36062">
        <ele>83.54</ele>
        <time>2016-10-01T10:21:04Z</time>
      </trkpt>
      <trkpt lat="48.44131" lon="-4.36087">
        <ele>82.58</ele>
        <time>2016-10-01T10:21:07Z</time>
      </trkpt>
      <trkpt lat="48.4412" lon="-4.3611">
        <ele>81.62</ele>
        <time>2016-10-01T10:21:10Z</time>
      </trkpt>
      <trkpt lat="48.44108" lon="-4.36131">
        <ele>79.78</ele>
        <time>2016-10-01T10:21:13Z</time>
      </trkpt>
      <trkpt lat="48.44094" lon="-4.36148">
        <ele>79.58</ele>
        <time>2016-10-01T10:21:16Z</time>
      </trkpt>
      <trkpt lat="48.44085" lon="-4.36172">
        <ele>79.58</ele>
        <time>2016-10-01T10:21:19Z</time>
      </trkpt>
      <trkpt lat="48.44094" lon="-4.36203">
        <ele>81.57</ele>
        <time>2016-10-01T10:21:23Z</time>
      </trkpt>
      <trkpt lat="48.4411" lon="-4.36229">
        <ele>81.58</ele>
        <time>2016-10-01T10:21:27Z</time>
      </trkpt>
      <trkpt lat="48.4413" lon="-4.36242">
        <ele>81.42</ele>
        <time>2016-10-01T10:21:31Z</time>
      </trkpt>
      <trkpt lat="48.4415" lon="-4.36256">
        <ele>81.58</ele>
        <time>2016-10-01T10:21:35Z</time>
      </trkpt>
      <trkpt lat="48.4416" lon="-4.36286">
        <ele>81.58</ele>
        <time>2016-10-01T10:21:39Z</time>
      </trkpt>
      <trkpt lat="48.44158" lon="-4.36314">
        <ele>81.58</ele>
        <time>2016-10-01T10:21:42Z</time>
      </trkpt>
      <trkpt lat="48.44156" lon="-4.36343">
        <ele>81.74</ele>
        <time>2016-10-01T10:21:45Z</time>
      </trkpt>
      <trkpt lat="48.44153" lon="-4.36374">
        <ele>80.78</ele>
        <time>2016-10-01T10:21:48Z</time>
      </trkpt>
      <trkpt lat="48.44154" lon="-4.36407">
        <ele>80.58</ele>
        <time>2016-10-01T10:21:51Z</time>
      </trkpt>
      <trkpt lat="48.44155" lon="-4.36442">
        <ele>79.58</ele>
        <time>2016-10-01T10:21:54Z</time>
      </trkpt>
      <trkpt lat="48.44156" lon="-4.3648">
        <ele>77.82</ele>
        <time>2016-10-01T10:21:57Z</time>
      </trkpt>
      <trkpt lat="48.4416" lon="-4.36515">
        <ele>77.61</ele>
        <time>2016-10-01T10:22:00Z</time>
      </trkpt>
      <trkpt lat="48.44169" lon="-4.36548">
        <ele>76.78</ele>
        <time>2016-10-01T10:22:03Z</time>
      </trkpt>
      <trkpt lat="48.44191" lon="-4.36559">
        <ele>74.82</ele>
        <time>2016-10-01T10:22:06Z</time>
      </trkpt>
      <trkpt lat="48.44218" lon="-4.36567">
        <ele>73.78</ele>
        <time>2016-10-01T10:22:09Z</time>
      </trkpt>
      <trkpt lat="48.44236" lon="-4.36572">
        <ele>72.78</ele>
        <time>2016-10-01T10:22:11Z</time>
      </trkpt>
      <trkpt lat="48.44253" lon="-4.36582">
        <ele>73.54</ele>
        <time>2016-10-01T10:22:13Z</time>
      </trkpt>
      <trkpt lat="48.44274" lon="-4.36605">
        <ele>73.58</ele>
        <time>2016-10-01T10:22:16Z</time>
      </trkpt>
      <trkpt lat="48.44291" lon="-4.36631">
        <ele>69.22</ele>
        <time>2016-10-01T10:22:19Z</time>
      </trkpt>
      <trkpt lat="48.44301" lon="-4.36654">
        <ele>67</ele>
        <time>2016-10-01T10:22:21Z</time>
      </trkpt>
      <trkpt lat="48.44312" lon="-4.36685">
        <ele>66.74</ele>
        <time>2016-10-01T10:22:24Z</time>
      </trkpt>
      <trkpt lat="48.44317" lon="-4.36717">
        <ele>68.41</ele>
        <time>2016-10-01T10:22:28Z</time>
      </trkpt>
      <trkpt lat="48.44323" lon="-4.36744">
        <ele>69.57</ele>
        <time>2016-10-01T10:22:32Z</time>
      </trkpt>
      <trkpt lat="48.4433" lon="-4.36772">
        <ele>72.56</ele>
        <time>2016-10-01T10:22:36Z</time>
      </trkpt>
      <trkpt lat="48.44336" lon="-4.36802">
        <ele>75.33</ele>
        <time>2016-10-01T10:22:40Z</time>
      </trkpt>
      <trkpt lat="48.44345" lon="-4.36828">
        <ele>74.78</ele>
        <time>2016-10-01T10:22:44Z</time>
      </trkpt>
      <trkpt lat="48.44354" lon="-4.36857">
        <ele>76.53</ele>
        <time>2016-10-01T10:22:48Z</time>
      </trkpt>
      <trkpt lat="48.44366" lon="-4.36885">
        <ele>77.38</ele>
        <time>2016-10-01T10:22:52Z</time>
      </trkpt>
      <trkpt lat="48.44379" lon="-4.36916">
        <ele>77.58</ele>
        <time>2016-10-01T10:22:56Z</time>
      </trkpt>
      <trkpt lat="48.44393" lon="-4.3694">
        <ele>76.62</ele>
        <time>2016-10-01T10:22:59Z</time>
      </trkpt>
      <trkpt lat="48.44408" lon="-4.36967">
        <ele>74.78</ele>
        <time>2016-10-01T10:23:02Z</time>
      </trkpt>
      <trkpt lat="48.44426" lon="-4.36997">
        <ele>73.62</ele>
        <time>2016-10-01T10:23:05Z</time>
      </trkpt>
      <trkpt lat="48.44444" lon="-4.37024">
        <ele>70.79</ele>
        <time>2016-10-01T10:23:08Z</time>
      </trkpt>
      <trkpt lat="48.44456" lon="-4.37052">
        <ele>70.55</ele>
        <time>2016-10-01T10:23:11Z</time>
      </trkpt>
      <trkpt lat="48.44469" lon="-4.37074">
        <ele>71.34</ele>
        <time>2016-10-01T10:23:14Z</time>
      </trkpt>
      <trkpt lat="48.44485" lon="-4.37092">
        <ele>72.57</ele>
        <time>2016-10-01T10:23:18Z</time>
      </trkpt>
      <trkpt lat="48.44494" lon="-4.37116">
        <ele>73.73</ele>
        <time>2016-10-01T10:23:22Z</time>
      </trkpt>
      <trkpt lat="48.44507" lon="-4.37136">
        <ele>74.57</ele>
        <time>2016-10-01T10:23:26Z</time>
      </trkpt>
      <trkpt lat="48.44519" lon="-4.3716">
        <ele>75.54</ele>
        <time>2016-10-01T10:23:30Z</time>
      </trkpt>
      <trkpt lat="48.44528" lon="-4.37183">
        <ele>74.78</ele>
        <time>2016-10-01T10:23:34Z</time>
      </trkpt>
      <trkpt lat="48.44539" lon="-4.37207">
        <ele>74.74</ele>
        <time>2016-10-01T10:23:38Z</time>
      </trkpt>
      <trkpt lat="48.44551" lon="-4.37229">
        <ele>75.34</ele>
        <time>2016-10-01T10:23:42Z</time>
      </trkpt>
      <trkpt lat="48.44563" lon="-4.3725">
        <ele>77.53</ele>
        <time>2016-10-01T10:23:46Z</time>
      </trkpt>
      <trkpt lat="48.44576" lon="-4.37275">
        <ele>78.54</ele>
        <time>2016-10-01T10:23:50Z</time>
      </trkpt>
      <trkpt lat="48.4459" lon="-4.373">
        <ele>80.37</ele>
        <time>2016-10-01T10:23:54Z</time>
      </trkpt>
      <trkpt lat="48.44603" lon="-4.37327">
        <ele>80.58</ele>
        <time>2016-10-01T10:23:58Z</time>
      </trkpt>
      <trkpt lat="48.44616" lon="-4.37355">
        <ele>80.58</ele>
        <time>2016-10-01T10:24:02Z</time>
      </trkpt>
      <trkpt lat="48.44626" lon="-4.37378">
        <ele>81.54</ele>
        <time>2016-10-01T10:24:05Z</time>
      </trkpt>
      <trkpt lat="48.44636" lon="-4.3741">
        <ele>81.42</ele>
        <time>2016-10-01T10:24:09Z</time>
      </trkpt>
      <trkpt lat="48.44644" lon="-4.37443">
        <ele>81.58</ele>
        <time>2016-10-01T10:24:13Z</time>
      </trkpt>
      <trkpt lat="48.44648" lon="-4.37476">
        <ele>82.57</ele>
        <time>2016-10-01T10:24:17Z</time>
      </trkpt>
      <trkpt lat="48.44652" lon="-4.37507">
        <ele>83.57</ele>
        <time>2016-10-01T10:24:21Z</time>
      </trkpt>
      <trkpt lat="48.44653" lon="-4.37538">
        <ele>86.33</ele>
        <time>2016-10-01T10:24:25Z</time>
      </trkpt>
      <trkpt lat="48.44653" lon="-4.37567">
        <ele>86.58</ele>
        <time>2016-10-01T10:24:29Z</time>
      </trkpt>
      <trkpt lat="48.44656" lon="-4.37595">
        <ele>85.78</ele>
        <time>2016-10-01T10:24:33Z</time>
      </trkpt>
      <trkpt lat="48.44661" lon="-4.37625">
        <ele>85.58</ele>
        <time>2016-10-01T10:24:37Z</time>
      </trkpt>
      <trkpt lat="48.44667" lon="-4.37654">
        <ele>85.58</ele>
        <time>2016-10-01T10:24:41Z</time>
      </trkpt>
      <trkpt lat="48.44673" lon="-4.37683">
        <ele>86.57</ele>
        <time>2016-10-01T10:24:45Z</time>
      </trkpt>
      <trkpt lat="48.44678" lon="-4.37711">
        <ele>88.34</ele>
        <time>2016-10-01T10:24:49Z</time>
      </trkpt>
      <trkpt lat="48.44682" lon="-4.37742">
        <ele>92.32</ele>
        <time>2016-10-01T10:24:54Z</time>
      </trkpt>
      <trkpt lat="48.44663" lon="-4.37754">
        <ele>91.78</ele>
        <time>2016-10-01T10:25:00Z</time>
      </trkpt>
      <trkpt lat="48.44642" lon="-4.37763">
        <ele>91.74</ele>
        <time>2016-10-01T10:25:05Z</time>
      </trkpt>
      <trkpt lat="48.44623" lon="-4.37776">
        <ele>94.17</ele>
        <time>2016-10-01T10:25:10Z</time>
      </trkpt>
      <trkpt lat="48.44608" lon="-4.37791">
        <ele>95.57</ele>
        <time>2016-10-01T10:25:14Z</time>
      </trkpt>
      <trkpt lat="48.44585" lon="-4.37793">
        <ele>93.43</ele>
        <time>2016-10-01T10:25:18Z</time>
      </trkpt>
      <trkpt lat="48.44564" lon="-4.37796">
        <ele>92.58</ele>
        <time>2016-10-01T10:25:22Z</time>
      </trkpt>
      <trkpt lat="48.44556" lon="-4.37821">
        <ele>91.42</ele>
        <time>2016-10-01T10:25:27Z</time>
      </trkpt>
      <trkpt lat="48.44562" lon="-4.37848">
        <ele>90.58</ele>
        <time>2016-10-01T10:25:31Z</time>
      </trkpt>
      <trkpt lat="48.4457" lon="-4.37876">
        <ele>89.61</ele>
        <time>2016-10-01T10:25:35Z</time>
      </trkpt>
      <trkpt lat="48.44575" lon="-4.37908">
        <ele>88.58</ele>
        <time>2016-10-01T10:25:39Z</time>
      </trkpt>
      <trkpt lat="48.44582" lon="-4.37933">
        <ele>87.62</ele>
        <time>2016-10-01T10:25:42Z</time>
      </trkpt>
      <trkpt lat="48.44588" lon="-4.37961">
        <ele>86.62</ele>
        <time>2016-10-01T10:25:45Z</time>
      </trkpt>
      <trkpt lat="48.44594" lon="-4.37991">
        <ele>86.58</ele>
        <time>2016-10-01T10:25:48Z</time>
      </trkpt>
      <trkpt lat="48.44601" lon="-4.38024">
        <ele>86.58</ele>
        <time>2016-10-01T10:25:51Z</time>
      </trkpt>
      <trkpt lat="48.4461" lon="-4.3805">
        <ele>87.54</ele>
        <time>2016-10-01T10:25:54Z</time>
      </trkpt>
      <trkpt lat="48.4461" lon="-4.38081">
        <ele>88.54</ele>
        <time>2016-10-01T10:25:59Z</time>
      </trkpt>
      <trkpt lat="48.446" lon="-4.38106">
        <ele>88.58</ele>
        <time>2016-10-01T10:26:03Z</time>
      </trkpt>
      <trkpt lat="48.44589" lon="-4.38134">
        <ele>88.58</ele>
        <time>2016-10-01T10:26:07Z</time>
      </trkpt>
      <trkpt lat="48.44577" lon="-4.38162">
        <ele>90.37</ele>
        <time>2016-10-01T10:26:11Z</time>
      </trkpt>
      <trkpt lat="48.44564" lon="-4.38192">
        <ele>91.38</ele>
        <time>2016-10-01T10:26:15Z</time>
      </trkpt>
      <trkpt lat="48.44553" lon="-4.38214">
        <ele>90.77</ele>
        <time>2016-10-01T10:26:18Z</time>
      </trkpt>
      <trkpt lat="48.44543" lon="-4.38237">
        <ele>90.58</ele>
        <time>2016-10-01T10:26:21Z</time>
      </trkpt>
      <trkpt lat="48.44533" lon="-4.3826">
        <ele>90.58</ele>
        <time>2016-10-01T10:26:24Z</time>
      </trkpt>
      <trkpt lat="48.44521" lon="-4.38289">
        <ele>91.57</ele>
        <time>2016-10-01T10:26:28Z</time>
      </trkpt>
      <trkpt lat="48.4451" lon="-4.3832">
        <ele>90.62</ele>
        <time>2016-10-01T10:26:32Z</time>
      </trkpt>
      <trkpt lat="48.44503" lon="-4.38346">
        <ele>90.58</ele>
        <time>2016-10-01T10:26:35Z</time>
      </trkpt>
      <trkpt lat="48.44496" lon="-4.38371">
        <ele>90.58</ele>
        <time>2016-10-01T10:26:38Z</time>
      </trkpt>
      <trkpt lat="48.44491" lon="-4.384">
        <ele>89.62</ele>
        <time>2016-10-01T10:26:41Z</time>
      </trkpt>
      <trkpt lat="48.44487" lon="-4.38429">
        <ele>88.62</ele>
        <time>2016-10-01T10:26:44Z</time>
      </trkpt>
      <trkpt lat="48.44484" lon="-4.3846">
        <ele>87.58</ele>
        <time>2016-10-01T10:26:47Z</time>
      </trkpt>
      <trkpt lat="48.4448" lon="-4.3849">
        <ele>87.58</ele>
        <time>2016-10-01T10:26:50Z</time>
      </trkpt>
      <trkpt lat="48.44477" lon="-4.38521">
        <ele>85.62</ele>
        <time>2016-10-01T10:26:53Z</time>
      </trkpt>
      <trkpt lat="48.44474" lon="-4.38553">
        <ele>84.62</ele>
        <time>2016-10-01T10:26:56Z</time>
      </trkpt>
      <trkpt lat="48.44471" lon="-4.38585">
        <ele>82.62</ele>
        <time>2016-10-01T10:26:59Z</time>
      </trkpt>
      <trkpt lat="48.44469" lon="-4.38618">
        <ele>81.78</ele>
        <time>2016-10-01T10:27:02Z</time>
      </trkpt>
      <trkpt lat="48.44466" lon="-4.38651">
        <ele>80.81</ele>
        <time>2016-10-01T10:27:05Z</time>
      </trkpt>
      <trkpt lat="48.44463" lon="-4.3868">
        <ele>80.74</ele>
        <time>2016-10-01T10:27:08Z</time>
      </trkpt>
      <trkpt lat="48.44446" lon="-4.38702">
        <ele>77.82</ele>
        <time>2016-10-01T10:27:12Z</time>
      </trkpt>
      <trkpt lat="48.44433" lon="-4.38722">
        <ele>77.61</ele>
        <time>2016-10-01T10:27:17Z</time>
      </trkpt>
      <trkpt lat="48.44419" lon="-4.38741">
        <ele>80.33</ele>
        <time>2016-10-01T10:27:21Z</time>
      </trkpt>
      <trkpt lat="48.44409" lon="-4.38765">
        <ele>76.66</ele>
        <time>2016-10-01T10:27:27Z</time>
      </trkpt>
      <trkpt lat="48.44403" lon="-4.38791">
        <ele>77.42</ele>
        <time>2016-10-01T10:27:32Z</time>
      </trkpt>
      <trkpt lat="48.44402" lon="-4.38819">
        <ele>73.58</ele>
        <time>2016-10-01T10:27:38Z</time>
      </trkpt>
      <trkpt lat="48.444" lon="-4.3885">
        <ele>71.75</ele>
        <time>2016-10-01T10:27:43Z</time>
      </trkpt>
      <trkpt lat="48.44393" lon="-4.3888">
        <ele>70.78</ele>
        <time>2016-10-01T10:27:48Z</time>
      </trkpt>
      <trkpt lat="48.44384" lon="-4.38904">
        <ele>70.58</ele>
        <time>2016-10-01T10:27:52Z</time>
      </trkpt>
      <trkpt lat="48.44374" lon="-4.38927">
        <ele>71.38</ele>
        <time>2016-10-01T10:27:56Z</time>
      </trkpt>
      <trkpt lat="48.44364" lon="-4.38952">
        <ele>72.54</ele>
        <time>2016-10-01T10:28:00Z</time>
      </trkpt>
      <trkpt lat="48.44353" lon="-4.38974">
        <ele>73.54</ele>
        <time>2016-10-01T10:28:04Z</time>
      </trkpt>
      <trkpt lat="48.44335" lon="-4.38976">
        <ele>72.62</ele>
        <time>2016-10-01T10:28:08Z</time>
      </trkpt>
      <trkpt lat="48.4432" lon="-4.38992">
        <ele>71.58</ele>
        <time>2016-10-01T10:28:15Z</time>
      </trkpt>
      <trkpt lat="48.44303" lon="-4.39006">
        <ele>70.58</ele>
        <time>2016-10-01T10:28:21Z</time>
      </trkpt>
      <trkpt lat="48.44286" lon="-4.39017">
        <ele>69.81</ele>
        <time>2016-10-01T10:28:31Z</time>
      </trkpt>
      <trkpt lat="48.44269" lon="-4.39006">
        <ele>69.74</ele>
        <time>2016-10-01T10:28:43Z</time>
      </trkpt>
      <trkpt lat="48.4425" lon="-4.39001">
        <ele>69.38</ele>
        <time>2016-10-01T10:28:50Z</time>
      </trkpt>
      <trkpt lat="48.44231" lon="-4.39013">
        <ele>72.77</ele>
        <time>2016-10-01T10:28:56Z</time>
      </trkpt>
      <trkpt lat="48.44211" lon="-4.39019">
        <ele>74.53</ele>
        <time>2016-10-01T10:29:04Z</time>
      </trkpt>
      <trkpt lat="48.44195" lon="-4.39036">
        <ele>79.38</ele>
        <time>2016-10-01T10:29:13Z</time>
      </trkpt>
      <trkpt lat="48.44193" lon="-4.39065">
        <ele>79.58</ele>
        <time>2016-10-01T10:29:22Z</time>
      </trkpt>
      <trkpt lat="48.44175" lon="-4.39073">
        <ele>76.79</ele>
        <time>2016-10-01T10:29:30Z</time>
      </trkpt>
      <trkpt lat="48.44157" lon="-4.39085">
        <ele>77.74</ele>
        <time>2016-10-01T10:29:36Z</time>
      </trkpt>
      <trkpt lat="48.44144" lon="-4.39109">
        <ele>79.34</ele>
        <time>2016-10-01T10:29:41Z</time>
      </trkpt>
      <trkpt lat="48.44135" lon="-4.39139">
        <ele>80.57</ele>
        <time>2016-10-01T10:29:46Z</time>
      </trkpt>
      <trkpt lat="48.44126" lon="-4.39163">
        <ele>81.57</ele>
        <time>2016-10-01T10:29:51Z</time>
      </trkpt>
    </trkseg>
  </trk>
</gpx>